Observation data for Throckmorton on 01/10/2018      Previous  Date  Next       Current Mesonet Observations  Soil Data  Daily Summary Page  Observations in Plain Language
KTH1 100600Z 17005KT 09/03 A2988 RMK A01 T00900025  RH  064%=      5-min Rain = 0
KTH1 100601Z 16005KT 09/02 A2988 RMK A01 T00900024  RH  064%=      5-min Rain = 0
KTH1 100602Z 16004KT 09/02 A2988 RMK A01 T00890024  RH  064%=      5-min Rain = 0
KTH1 100603Z 16005KT 09/02 A2988 RMK A01 T00890024  RH  064%=      5-min Rain = 0
KTH1 100604Z 16006KT 09/02 A2987 RMK A01 T00880024  RH  064%=      5-min Rain = 0
KTH1 100605Z 15005KT 09/02 A2987 RMK A01 T00880024  RH  064%=      5-min Rain = 0
KTH1 100606Z 16007KT 09/02 A2987 RMK A01 T00870024  RH  065%=      5-min Rain = 0
KTH1 100607Z 16006KT 09/02 A2987 RMK A01 T00870024  RH  065%=      5-min Rain = 0
KTH1 100608Z 15005KT 09/02 A2987 RMK A01 T00860024  RH  065%=      5-min Rain = 0
KTH1 100609Z 16005KT 09/03 A2987 RMK A01 T00860025  RH  065%=      5-min Rain = 0
KTH1 100610Z 16005KT 09/02 A2988 RMK A01 T00860024  RH  065%=      5-min Rain = 0
KTH1 100611Z 16005KT 09/02 A2988 RMK A01 T00860024  RH  065%=      5-min Rain = 0
KTH1 100612Z 16004KT 09/02 A2987 RMK A01 T00860024  RH  065%=      5-min Rain = 0
KTH1 100613Z 16004KT 09/02 A2987 RMK A01 T00860024  RH  065%=      5-min Rain = 0
KTH1 100614Z 16005KT 09/02 A2987 RMK A01 T00860024  RH  065%=      5-min Rain = 0
KTH1 100615Z 16004KT 09/02 A2987 RMK A01 T00850024  RH  065%=      5-min Rain = 0
KTH1 100616Z 16005KT 09/02 A2987 RMK A01 T00850024  RH  066%=      5-min Rain = 0
KTH1 100617Z 16005KT 09/02 A2987 RMK A01 T00850024  RH  066%=      5-min Rain = 0
KTH1 100618Z 15005KT 08/02 A2987 RMK A01 T00840024  RH  066%=      5-min Rain = 0
KTH1 100619Z 16005KT 08/02 A2987 RMK A01 T00840024  RH  066%=      5-min Rain = 0
KTH1 100620Z 16005KT 08/03 A2987 RMK A01 T00840025  RH  066%=      5-min Rain = 0
KTH1 100621Z 15004KT 08/03 A2987 RMK A01 T00840025  RH  066%=      5-min Rain = 0
KTH1 100622Z 16005KT 08/02 A2987 RMK A01 T00830024  RH  066%=      5-min Rain = 0
KTH1 100623Z 16005KT 08/03 A2987 RMK A01 T00830025  RH  067%=      5-min Rain = 0
KTH1 100624Z 16005KT 08/02 A2987 RMK A01 T00830024  RH  067%=      5-min Rain = 0
KTH1 100625Z 16005KT 08/02 A2987 RMK A01 T00820024  RH  067%=      5-min Rain = 0
KTH1 100626Z 16005KT 08/02 A2987 RMK A01 T00820024  RH  067%=      5-min Rain = 0
KTH1 100627Z 16005KT 08/02 A2987 RMK A01 T00820024  RH  067%=      5-min Rain = 0
KTH1 100628Z 17004KT 08/02 A2987 RMK A01 T00820024  RH  067%=      5-min Rain = 0
KTH1 100629Z 17004KT 08/02 A2987 RMK A01 T00820024  RH  067%=      5-min Rain = 0
KTH1 100630Z 17004KT 08/02 A2987 RMK A01 T00810024  RH  067%=      5-min Rain = 0
KTH1 100631Z 16004KT 08/02 A2986 RMK A01 T00810024  RH  067%=      5-min Rain = 0
KTH1 100632Z 16004KT 08/02 A2986 RMK A01 T00810024  RH  067%=      5-min Rain = 0
KTH1 100633Z 16005KT 08/02 A2986 RMK A01 T00810024  RH  067%=      5-min Rain = 0
KTH1 100634Z 17005KT 08/02 A2986 RMK A01 T00810024  RH  067%=      5-min Rain = 0
KTH1 100635Z 16005KT 08/02 A2986 RMK A01 T00810024  RH  068%=      5-min Rain = 0
KTH1 100636Z 16006KT 08/02 A2986 RMK A01 T00810024  RH  068%=      5-min Rain = 0
KTH1 100637Z 16005KT 08/02 A2986 RMK A01 T00810024  RH  068%=      5-min Rain = 0
KTH1 100638Z 16005KT 08/02 A2986 RMK A01 T00800024  RH  068%=      5-min Rain = 0
KTH1 100639Z 16005KT 08/02 A2986 RMK A01 T00790024  RH  068%=      5-min Rain = 0
KTH1 100640Z 16005KT 08/02 A2986 RMK A01 T00790024  RH  068%=      5-min Rain = 0
KTH1 100641Z 16005KT 08/02 A2986 RMK A01 T00780024  RH  068%=      5-min Rain = 0
KTH1 100642Z 16006KT 08/02 A2986 RMK A01 T00780024  RH  069%=      5-min Rain = 0
KTH1 100643Z 16006KT 08/02 A2986 RMK A01 T00770024  RH  069%=      5-min Rain = 0
KTH1 100644Z 16006KT 08/02 A2986 RMK A01 T00770024  RH  069%=      5-min Rain = 0
KTH1 100645Z 15006KT 08/02 A2986 RMK A01 T00760024  RH  069%=      5-min Rain = 0
KTH1 100646Z 16006KT 08/02 A2986 RMK A01 T00760024  RH  069%=      5-min Rain = 0
KTH1 100647Z 16006KT 08/02 A2986 RMK A01 T00760024  RH  070%=      5-min Rain = 0
KTH1 100648Z 16006KT 08/02 A2986 RMK A01 T00750024  RH  070%=      5-min Rain = 0
KTH1 100649Z 16007KT 08/02 A2986 RMK A01 T00750024  RH  070%=      5-min Rain = 0
KTH1 100650Z 16006KT 08/02 A2986 RMK A01 T00750024  RH  070%=      5-min Rain = 0
KTH1 100651Z 16006KT 08/02 A2986 RMK A01 T00750024  RH  070%=      5-min Rain = 0
KTH1 100652Z 16007KT 07/02 A2986 RMK A01 T00740024  RH  070%=      5-min Rain = 0
KTH1 100653Z 16007KT 07/02 A2985 RMK A01 T00740024  RH  070%=      5-min Rain = 0
KTH1 100654Z 16007KT 07/02 A2985 RMK A01 T00740024  RH  070%=      5-min Rain = 0
KTH1 100655Z 16008KT 07/02 A2985 RMK A01 T00740024  RH  071%=      5-min Rain = 0
KTH1 100656Z 15007KT 07/02 A2985 RMK A01 T00740024  RH  071%=      5-min Rain = 0
KTH1 100657Z 16007KT 07/03 A2985 RMK A01 T00740025  RH  071%=      5-min Rain = 0
KTH1 100658Z 16006KT 07/03 A2985 RMK A01 T00740025  RH  071%=      5-min Rain = 0
KTH1 100659Z 16006KT 07/03 A2985 RMK A01 T00740025  RH  071%=      5-min Rain = 0
KTH1 100700Z 16006KT 07/02 A2985 RMK A01 T00740024  RH  071%=      5-min Rain = 0
KTH1 100701Z 16006KT 07/02 A2985 RMK A01 T00740024  RH  071%=      5-min Rain = 0
KTH1 100702Z 16006KT 07/03 A2985 RMK A01 T00740025  RH  071%=      5-min Rain = 0
KTH1 100703Z 16005KT 07/02 A2985 RMK A01 T00730024  RH  071%=      5-min Rain = 0
KTH1 100704Z 16006KT 07/02 A2985 RMK A01 T00730024  RH  071%=      5-min Rain = 0
KTH1 100705Z 16005KT 07/02 A2985 RMK A01 T00730024  RH  071%=      5-min Rain = 0
KTH1 100706Z 16005KT 07/02 A2986 RMK A01 T00720024  RH  071%=      5-min Rain = 0
KTH1 100707Z 16005KT 07/02 A2986 RMK A01 T00720023  RH  071%=      5-min Rain = 0
KTH1 100708Z 17005KT 07/02 A2986 RMK A01 T00720024  RH  071%=      5-min Rain = 0
KTH1 100709Z 16005KT 07/02 A2986 RMK A01 T00720024  RH  071%=      5-min Rain = 0
KTH1 100710Z 17005KT 07/02 A2986 RMK A01 T00720024  RH  071%=      5-min Rain = 0
KTH1 100711Z 16005KT 07/02 A2986 RMK A01 T00720024  RH  071%=      5-min Rain = 0
KTH1 100712Z 17005KT 07/02 A2985 RMK A01 T00720023  RH  071%=      5-min Rain = 0
KTH1 100713Z 16005KT 07/02 A2985 RMK A01 T00720023  RH  071%=      5-min Rain = 0
KTH1 100714Z 16006KT 07/02 A2985 RMK A01 T00720023  RH  071%=      5-min Rain = 0
KTH1 100715Z 16005KT 07/02 A2985 RMK A01 T00720023  RH  071%=      5-min Rain = 0
KTH1 100716Z 16005KT 07/02 A2985 RMK A01 T00720024  RH  071%=      5-min Rain = 0
KTH1 100717Z 17005KT 07/02 A2985 RMK A01 T00720024  RH  071%=      5-min Rain = 0
KTH1 100718Z 16005KT 07/02 A2985 RMK A01 T00720024  RH  071%=      5-min Rain = 0
KTH1 100719Z 16006KT 07/02 A2985 RMK A01 T00730024  RH  071%=      5-min Rain = 0
KTH1 100720Z 17005KT 07/03 A2985 RMK A01 T00730025  RH  071%=      5-min Rain = 0
KTH1 100721Z 16005KT 07/03 A2985 RMK A01 T00740025  RH  071%=      5-min Rain = 0
KTH1 100722Z 17005KT 08/03 A2985 RMK A01 T00750025  RH  071%=      5-min Rain = 0
KTH1 100723Z 17005KT 08/03 A2985 RMK A01 T00750025  RH  071%=      5-min Rain = 0
KTH1 100724Z 17005KT 08/03 A2985 RMK A01 T00750025  RH  071%=      5-min Rain = 0
KTH1 100725Z 17005KT 08/03 A2985 RMK A01 T00750025  RH  071%=      5-min Rain = 0
KTH1 100726Z 17005KT 08/03 A2985 RMK A01 T00750025  RH  070%=      5-min Rain = 0
KTH1 100727Z 17005KT 08/03 A2985 RMK A01 T00750025  RH  070%=      5-min Rain = 0
KTH1 100728Z 17005KT 08/03 A2985 RMK A01 T00750025  RH  070%=      5-min Rain = 0
KTH1 100729Z 16006KT 08/03 A2985 RMK A01 T00750025  RH  071%=      5-min Rain = 0
KTH1 100730Z 16005KT 07/02 A2985 RMK A01 T00740024  RH  071%=      5-min Rain = 0
KTH1 100731Z 16005KT 07/03 A2985 RMK A01 T00740025  RH  071%=      5-min Rain = 0
KTH1 100732Z 16005KT 07/02 A2985 RMK A01 T00730024  RH  071%=      5-min Rain = 0
KTH1 100733Z 16005KT 07/02 A2985 RMK A01 T00730024  RH  071%=      5-min Rain = 0
KTH1 100734Z 16005KT 07/02 A2985 RMK A01 T00720024  RH  071%=      5-min Rain = 0
KTH1 100735Z 17005KT 07/02 A2985 RMK A01 T00720024  RH  071%=      5-min Rain = 0
KTH1 100736Z 16005KT 07/02 A2985 RMK A01 T00720024  RH  072%=      5-min Rain = 0
KTH1 100737Z 17005KT 07/02 A2985 RMK A01 T00720024  RH  072%=      5-min Rain = 0
KTH1 100738Z 16005KT 07/02 A2985 RMK A01 T00720024  RH  072%=      5-min Rain = 0
KTH1 100739Z 16005KT 07/02 A2985 RMK A01 T00720024  RH  072%=      5-min Rain = 0
KTH1 100740Z 16005KT 07/02 A2985 RMK A01 T00720024  RH  072%=      5-min Rain = 0
KTH1 100741Z 16005KT 07/02 A2985 RMK A01 T00710023  RH  072%=      5-min Rain = 0
KTH1 100742Z 16005KT 07/02 A2985 RMK A01 T00710023  RH  072%=      5-min Rain = 0
KTH1 100743Z 16005KT 07/02 A2985 RMK A01 T00700023  RH  072%=      5-min Rain = 0
KTH1 100744Z 16005KT 07/02 A2985 RMK A01 T00690023  RH  072%=      5-min Rain = 0
KTH1 100745Z 16005KT 07/02 A2985 RMK A01 T00690023  RH  073%=      5-min Rain = 0
KTH1 100746Z 16005KT 07/02 A2985 RMK A01 T00680023  RH  073%=      5-min Rain = 0
KTH1 100747Z 16005KT 07/02 A2985 RMK A01 T00680023  RH  073%=      5-min Rain = 0
KTH1 100748Z 16005KT 07/02 A2985 RMK A01 T00680023  RH  073%=      5-min Rain = 0
KTH1 100749Z 16005KT 07/02 A2985 RMK A01 T00680023  RH  073%=      5-min Rain = 0
KTH1 100750Z 16005KT 07/02 A2985 RMK A01 T00670023  RH  073%=      5-min Rain = 0
KTH1 100751Z 16005KT 07/02 A2985 RMK A01 T00680023  RH  073%=      5-min Rain = 0
KTH1 100752Z 16005KT 07/02 A2985 RMK A01 T00670023  RH  073%=      5-min Rain = 0
KTH1 100753Z 16005KT 07/02 A2985 RMK A01 T00670023  RH  073%=      5-min Rain = 0
KTH1 100754Z 16005KT 07/02 A2985 RMK A01 T00670023  RH  073%=      5-min Rain = 0
KTH1 100755Z 16006KT 07/02 A2985 RMK A01 T00670023  RH  073%=      5-min Rain = 0
KTH1 100756Z 16006KT 07/02 A2985 RMK A01 T00670023  RH  073%=      5-min Rain = 0
KTH1 100757Z 16006KT 07/02 A2985 RMK A01 T00670023  RH  073%=      5-min Rain = 0
KTH1 100758Z 16005KT 07/02 A2985 RMK A01 T00670023  RH  073%=      5-min Rain = 0
KTH1 100759Z 16006KT 07/02 A2985 RMK A01 T00670023  RH  073%=      5-min Rain = 0
KTH1 100800Z 16006KT 07/02 A2985 RMK A01 T00670023  RH  073%=      5-min Rain = 0
KTH1 100801Z 16005KT 07/02 A2985 RMK A01 T00670023  RH  073%=      5-min Rain = 0
KTH1 100802Z 16005KT 07/02 A2985 RMK A01 T00660023  RH  074%=      5-min Rain = 0
KTH1 100803Z 16005KT 07/02 A2985 RMK A01 T00660023  RH  074%=      5-min Rain = 0
KTH1 100804Z 16005KT 07/02 A2985 RMK A01 T00660023  RH  074%=      5-min Rain = 0
KTH1 100805Z 16006KT 07/02 A2985 RMK A01 T00660022  RH  074%=      5-min Rain = 0
KTH1 100806Z 16005KT 07/02 A2985 RMK A01 T00650022  RH  074%=      5-min Rain = 0
KTH1 100807Z 16005KT 07/02 A2985 RMK A01 T00650022  RH  074%=      5-min Rain = 0
KTH1 100808Z 16005KT 06/02 A2985 RMK A01 T00640022  RH  074%=      5-min Rain = 0
KTH1 100809Z 16005KT 06/02 A2985 RMK A01 T00640022  RH  075%=      5-min Rain = 0
KTH1 100810Z 16006KT 06/02 A2985 RMK A01 T00630022  RH  075%=      5-min Rain = 0
KTH1 100811Z 16006KT 06/02 A2985 RMK A01 T00630022  RH  075%=      5-min Rain = 0
KTH1 100812Z 17005KT 06/02 A2985 RMK A01 T00630022  RH  075%=      5-min Rain = 0
KTH1 100813Z 17005KT 06/02 A2985 RMK A01 T00630022  RH  075%=      5-min Rain = 0
KTH1 100814Z 16005KT 06/02 A2985 RMK A01 T00630022  RH  075%=      5-min Rain = 0
KTH1 100815Z 16005KT 06/02 A2985 RMK A01 T00630022  RH  075%=      5-min Rain = 0
KTH1 100816Z 16005KT 06/02 A2985 RMK A01 T00630022  RH  075%=      5-min Rain = 0
KTH1 100817Z 16005KT 06/02 A2985 RMK A01 T00630022  RH  075%=      5-min Rain = 0
KTH1 100818Z 16005KT 06/02 A2985 RMK A01 T00630022  RH  075%=      5-min Rain = 0
KTH1 100819Z 16005KT 06/02 A2985 RMK A01 T00630022  RH  075%=      5-min Rain = 0
KTH1 100820Z 16005KT 06/02 A2985 RMK A01 T00630022  RH  075%=      5-min Rain = 0
KTH1 100821Z 17005KT 06/02 A2985 RMK A01 T00630022  RH  075%=      5-min Rain = 0
KTH1 100822Z 17005KT 06/02 A2985 RMK A01 T00630022  RH  075%=      5-min Rain = 0
KTH1 100823Z 17005KT 06/02 A2985 RMK A01 T00630022  RH  075%=      5-min Rain = 0
KTH1 100824Z 17005KT 06/02 A2985 RMK A01 T00640022  RH  075%=      5-min Rain = 0
KTH1 100825Z 17005KT 07/02 A2985 RMK A01 T00650023  RH  074%=      5-min Rain = 0
KTH1 100826Z 17005KT 07/02 A2985 RMK A01 T00650023  RH  074%=      5-min Rain = 0
KTH1 100827Z 17005KT 07/02 A2985 RMK A01 T00650023  RH  074%=      5-min Rain = 0
KTH1 100828Z 17004KT 07/02 A2985 RMK A01 T00660023  RH  074%=      5-min Rain = 0
KTH1 100829Z 17004KT 07/02 A2985 RMK A01 T00660023  RH  074%=      5-min Rain = 0
KTH1 100830Z 18005KT 07/02 A2985 RMK A01 T00660023  RH  074%=      5-min Rain = 0
KTH1 100831Z 17004KT 07/02 A2985 RMK A01 T00670023  RH  074%=      5-min Rain = 0
KTH1 100832Z 17005KT 07/02 A2985 RMK A01 T00670023  RH  074%=      5-min Rain = 0
KTH1 100833Z 17005KT 07/02 A2985 RMK A01 T00670023  RH  074%=      5-min Rain = 0
KTH1 100834Z 17004KT 07/02 A2985 RMK A01 T00670023  RH  073%=      5-min Rain = 0
KTH1 100835Z 17005KT 07/02 A2985 RMK A01 T00680024  RH  073%=      5-min Rain = 0
KTH1 100836Z 17004KT 07/02 A2985 RMK A01 T00680023  RH  073%=      5-min Rain = 0
KTH1 100837Z 17004KT 07/02 A2985 RMK A01 T00680023  RH  073%=      5-min Rain = 0
KTH1 100838Z 17005KT 07/02 A2985 RMK A01 T00670023  RH  073%=      5-min Rain = 0
KTH1 100839Z 17005KT 07/02 A2985 RMK A01 T00680023  RH  073%=      5-min Rain = 0
KTH1 100840Z 17005KT 07/02 A2985 RMK A01 T00670023  RH  074%=      5-min Rain = 0
KTH1 100841Z 17005KT 07/02 A2985 RMK A01 T00670024  RH  074%=      5-min Rain = 0
KTH1 100842Z 17005KT 07/02 A2985 RMK A01 T00680024  RH  073%=      5-min Rain = 0
KTH1 100843Z 16005KT 07/02 A2985 RMK A01 T00680024  RH  073%=      5-min Rain = 0
KTH1 100844Z 16005KT 07/02 A2985 RMK A01 T00670023  RH  073%=      5-min Rain = 0
KTH1 100845Z 17004KT 07/02 A2985 RMK A01 T00670024  RH  074%=      5-min Rain = 0
KTH1 100846Z 17005KT 07/02 A2985 RMK A01 T00670023  RH  074%=      5-min Rain = 0
KTH1 100847Z 17005KT 07/02 A2985 RMK A01 T00670023  RH  074%=      5-min Rain = 0
KTH1 100848Z 17005KT 07/02 A2985 RMK A01 T00660023  RH  074%=      5-min Rain = 0
KTH1 100849Z 17005KT 07/02 A2985 RMK A01 T00670024  RH  074%=      5-min Rain = 0
KTH1 100850Z 17006KT 07/02 A2985 RMK A01 T00680024  RH  074%=      5-min Rain = 0
KTH1 100851Z 17005KT 07/03 A2985 RMK A01 T00700025  RH  073%=      5-min Rain = 0
KTH1 100852Z 17005KT 07/03 A2985 RMK A01 T00700025  RH  073%=      5-min Rain = 0
KTH1 100853Z 17005KT 07/03 A2985 RMK A01 T00710025  RH  073%=      5-min Rain = 0
KTH1 100854Z 16006KT 07/02 A2985 RMK A01 T00710024  RH  072%=      5-min Rain = 0
KTH1 100855Z 17005KT 07/02 A2985 RMK A01 T00710024  RH  072%=      5-min Rain = 0
KTH1 100856Z 16006KT 07/02 A2985 RMK A01 T00710024  RH  072%=      5-min Rain = 0
KTH1 100857Z 16005KT 07/02 A2985 RMK A01 T00700024  RH  072%=      5-min Rain = 0
KTH1 100858Z 17006KT 07/02 A2985 RMK A01 T00710024  RH  072%=      5-min Rain = 0
KTH1 100859Z 17006KT 07/02 A2985 RMK A01 T00700024  RH  073%=      5-min Rain = 0
KTH1 100900Z 17006KT 07/02 A2985 RMK A01 T00700024  RH  073%=      5-min Rain = 0
KTH1 100901Z 17006KT 07/03 A2985 RMK A01 T00700025  RH  073%=      5-min Rain = 0
KTH1 100902Z 16006KT 07/03 A2985 RMK A01 T00710025  RH  073%=      5-min Rain = 0
KTH1 100903Z 16007KT 07/03 A2985 RMK A01 T00710025  RH  073%=      5-min Rain = 0
KTH1 100904Z 16007KT 07/03 A2985 RMK A01 T00710025  RH  072%=      5-min Rain = 0
KTH1 100905Z 16007KT 07/03 A2985 RMK A01 T00710025  RH  072%=      5-min Rain = 0
KTH1 100906Z 16007KT 07/03 A2985 RMK A01 T00720025  RH  072%=      5-min Rain = 0
KTH1 100907Z 16007KT 07/03 A2985 RMK A01 T00720026  RH  073%=      5-min Rain = 0
KTH1 100908Z 16007KT 07/03 A2985 RMK A01 T00720026  RH  073%=      5-min Rain = 0
KTH1 100909Z 16007KT 07/03 A2985 RMK A01 T00720026  RH  072%=      5-min Rain = 0
KTH1 100910Z 16006KT 07/03 A2985 RMK A01 T00730026  RH  072%=      5-min Rain = 0
KTH1 100911Z 16007KT 07/03 A2985 RMK A01 T00730026  RH  072%=      5-min Rain = 0
KTH1 100912Z 16007KT 07/03 A2985 RMK A01 T00730026  RH  072%=      5-min Rain = 0
KTH1 100913Z 17007KT 07/03 A2985 RMK A01 T00730025  RH  072%=      5-min Rain = 0
KTH1 100914Z 17007KT 07/03 A2985 RMK A01 T00730025  RH  072%=      5-min Rain = 0
KTH1 100915Z 17006KT 07/03 A2985 RMK A01 T00730025  RH  072%=      5-min Rain = 0
KTH1 100916Z 17007KT 07/03 A2985 RMK A01 T00730026  RH  072%=      5-min Rain = 0
KTH1 100917Z 17007KT 07/03 A2985 RMK A01 T00730026  RH  072%=      5-min Rain = 0
KTH1 100918Z 16007KT 07/03 A2985 RMK A01 T00730026  RH  072%=      5-min Rain = 0
KTH1 100919Z 17007KT 07/03 A2985 RMK A01 T00730026  RH  072%=      5-min Rain = 0
KTH1 100920Z 16007KT 07/03 A2985 RMK A01 T00730026  RH  072%=      5-min Rain = 0
KTH1 100921Z 16007KT 07/03 A2985 RMK A01 T00730026  RH  072%=      5-min Rain = 0
KTH1 100922Z 16007KT 07/03 A2985 RMK A01 T00730026  RH  072%=      5-min Rain = 0
KTH1 100923Z 16007KT 07/03 A2985 RMK A01 T00740026  RH  072%=      5-min Rain = 0
KTH1 100924Z 17007KT 07/03 A2985 RMK A01 T00740026  RH  072%=      5-min Rain = 0
KTH1 100925Z 16006KT 07/03 A2985 RMK A01 T00740026  RH  072%=      5-min Rain = 0
KTH1 100926Z 16007KT 07/03 A2985 RMK A01 T00740026  RH  072%=      5-min Rain = 0
KTH1 100927Z 16006KT 07/03 A2985 RMK A01 T00740026  RH  072%=      5-min Rain = 0
KTH1 100928Z 17007KT 07/03 A2985 RMK A01 T00740027  RH  072%=      5-min Rain = 0
KTH1 100929Z 17006KT 07/03 A2985 RMK A01 T00740027  RH  072%=      5-min Rain = 0
KTH1 100930Z 16007KT 07/03 A2985 RMK A01 T00740027  RH  072%=      5-min Rain = 0
KTH1 100931Z 17007KT 07/03 A2985 RMK A01 T00740026  RH  072%=      5-min Rain = 0
KTH1 100932Z 17007KT 07/03 A2985 RMK A01 T00730026  RH  072%=      5-min Rain = 0
KTH1 100933Z 17006KT 07/03 A2985 RMK A01 T00730027  RH  072%=      5-min Rain = 0
KTH1 100934Z 17007KT 07/03 A2984 RMK A01 T00730027  RH  072%=      5-min Rain = 0
KTH1 100935Z 17007KT 07/03 A2984 RMK A01 T00730026  RH  072%=      5-min Rain = 0
KTH1 100936Z 17007KT 07/03 A2984 RMK A01 T00730027  RH  072%=      5-min Rain = 0
KTH1 100937Z 17007KT 07/03 A2984 RMK A01 T00730027  RH  072%=      5-min Rain = 0
KTH1 100938Z 17007KT 07/03 A2984 RMK A01 T00720026  RH  072%=      5-min Rain = 0
KTH1 100939Z 17007KT 07/03 A2984 RMK A01 T00720026  RH  073%=      5-min Rain = 0
KTH1 100940Z 17007KT 07/03 A2984 RMK A01 T00720027  RH  073%=      5-min Rain = 0
KTH1 100941Z 17007KT 07/03 A2984 RMK A01 T00720026  RH  073%=      5-min Rain = 0
KTH1 100942Z 17007KT 07/03 A2984 RMK A01 T00730026  RH  072%=      5-min Rain = 0
KTH1 100943Z 17008KT 07/03 A2984 RMK A01 T00740027  RH  072%=      5-min Rain = 0
KTH1 100944Z 17007KT 07/03 A2984 RMK A01 T00740027  RH  072%=      5-min Rain = 0
KTH1 100945Z 18007KT 08/03 A2984 RMK A01 T00750027  RH  072%=      5-min Rain = 0
KTH1 100946Z 18006KT 08/03 A2984 RMK A01 T00760027  RH  071%=      5-min Rain = 0
KTH1 100947Z 17007KT 08/03 A2984 RMK A01 T00760027  RH  071%=      5-min Rain = 0
KTH1 100948Z 18007KT 08/03 A2984 RMK A01 T00770027  RH  071%=      5-min Rain = 0
KTH1 100949Z 17007KT 08/03 A2984 RMK A01 T00770027  RH  071%=      5-min Rain = 0
KTH1 100950Z 17008KT 08/03 A2984 RMK A01 T00770027  RH  070%=      5-min Rain = 0
KTH1 100951Z 17008KT 08/03 A2983 RMK A01 T00780027  RH  070%=      5-min Rain = 0
KTH1 100952Z 17007KT 08/03 A2983 RMK A01 T00770027  RH  070%=      5-min Rain = 0
KTH1 100953Z 17009KT 08/03 A2983 RMK A01 T00770027  RH  070%=      5-min Rain = 0
KTH1 100954Z 17009KT 08/03 A2983 RMK A01 T00770027  RH  070%=      5-min Rain = 0
KTH1 100955Z 17009KT 08/03 A2983 RMK A01 T00780027  RH  070%=      5-min Rain = 0
KTH1 100956Z 17008KT 08/03 A2983 RMK A01 T00790027  RH  070%=      5-min Rain = 0
KTH1 100957Z 17009KT 08/03 A2983 RMK A01 T00790027  RH  070%=      5-min Rain = 0
KTH1 100958Z 17008KT 08/03 A2983 RMK A01 T00790027  RH  070%=      5-min Rain = 0
KTH1 100959Z 17008KT 08/03 A2983 RMK A01 T00790027  RH  069%=      5-min Rain = 0
KTH1 101000Z 17008KT 08/03 A2983 RMK A01 T00790027  RH  070%=      5-min Rain = 0
KTH1 101001Z 17009KT 08/03 A2983 RMK A01 T00800027  RH  069%=      5-min Rain = 0
KTH1 101002Z 17008KT 08/03 A2983 RMK A01 T00800027  RH  069%=      5-min Rain = 0
KTH1 101003Z 16008KT 08/03 A2983 RMK A01 T00810028  RH  069%=      5-min Rain = 0
KTH1 101004Z 16010KT 08/03 A2983 RMK A01 T00810027  RH  069%=      5-min Rain = 0
KTH1 101005Z 17007KT 08/03 A2983 RMK A01 T00820027  RH  068%=      5-min Rain = 0
KTH1 101006Z 16008KT 08/03 A2983 RMK A01 T00820028  RH  068%=      5-min Rain = 0
KTH1 101007Z 16007KT 08/03 A2983 RMK A01 T00820027  RH  068%=      5-min Rain = 0
KTH1 101008Z 17008KT 08/03 A2983 RMK A01 T00820027  RH  068%=      5-min Rain = 0
KTH1 101009Z 16008KT 08/03 A2983 RMK A01 T00810027  RH  068%=      5-min Rain = 0
KTH1 101010Z 16007KT 08/03 A2983 RMK A01 T00810027  RH  068%=      5-min Rain = 0
KTH1 101011Z 16007KT 08/03 A2983 RMK A01 T00810027  RH  068%=      5-min Rain = 0
KTH1 101012Z 16008KT 08/03 A2983 RMK A01 T00810026  RH  069%=      5-min Rain = 0
KTH1 101013Z 16007KT 08/03 A2983 RMK A01 T00800026  RH  069%=      5-min Rain = 0
KTH1 101014Z 16007KT 08/03 A2983 RMK A01 T00800026  RH  069%=      5-min Rain = 0
KTH1 101015Z 16007KT 08/03 A2983 RMK A01 T00790026  RH  069%=      5-min Rain = 0
KTH1 101016Z 16007KT 08/03 A2983 RMK A01 T00790026  RH  069%=      5-min Rain = 0
KTH1 101017Z 16007KT 08/03 A2983 RMK A01 T00780026  RH  069%=      5-min Rain = 0
KTH1 101018Z 15008KT 08/03 A2983 RMK A01 T00780026  RH  069%=      5-min Rain = 0
KTH1 101019Z 15008KT 08/03 A2983 RMK A01 T00770026  RH  070%=      5-min Rain = 0
KTH1 101020Z 15007KT 08/03 A2983 RMK A01 T00780026  RH  070%=      5-min Rain = 0
KTH1 101021Z 15007KT 08/03 A2983 RMK A01 T00770026  RH  070%=      5-min Rain = 0
KTH1 101022Z 16008KT 08/03 A2983 RMK A01 T00770026  RH  070%=      5-min Rain = 0
KTH1 101023Z 16008KT 08/03 A2983 RMK A01 T00770026  RH  070%=      5-min Rain = 0
KTH1 101024Z 16009KT 08/03 A2983 RMK A01 T00770026  RH  070%=      5-min Rain = 0
KTH1 101025Z 16008KT 08/03 A2983 RMK A01 T00770025  RH  070%=      5-min Rain = 0
KTH1 101026Z 16008KT 08/03 A2983 RMK A01 T00760025  RH  070%=      5-min Rain = 0
KTH1 101027Z 16007KT 08/03 A2983 RMK A01 T00760025  RH  070%=      5-min Rain = 0
KTH1 101028Z 15008KT 08/03 A2983 RMK A01 T00760025  RH  070%=      5-min Rain = 0
KTH1 101029Z 15008KT 08/03 A2983 RMK A01 T00760025  RH  070%=      5-min Rain = 0
KTH1 101030Z 16008KT 08/03 A2983 RMK A01 T00760026  RH  070%=      5-min Rain = 0
KTH1 101031Z 16007KT 08/03 A2983 RMK A01 T00770026  RH  070%=      5-min Rain = 0
KTH1 101032Z 16008KT 08/03 A2983 RMK A01 T00760026  RH  070%=      5-min Rain = 0
KTH1 101033Z 15008KT 08/03 A2983 RMK A01 T00760025  RH  070%=      5-min Rain = 0
KTH1 101034Z 15008KT 08/03 A2983 RMK A01 T00760025  RH  070%=      5-min Rain = 0
KTH1 101035Z 16008KT 08/03 A2983 RMK A01 T00760025  RH  070%=      5-min Rain = 0
KTH1 101036Z 16008KT 08/03 A2983 RMK A01 T00750025  RH  070%=      5-min Rain = 0
KTH1 101037Z 16008KT 07/03 A2983 RMK A01 T00740025  RH  071%=      5-min Rain = 0
KTH1 101038Z 15007KT 07/03 A2983 RMK A01 T00740025  RH  071%=      5-min Rain = 0
KTH1 101039Z 15008KT 07/03 A2983 RMK A01 T00730025  RH  071%=      5-min Rain = 0
KTH1 101040Z 15007KT 07/02 A2983 RMK A01 T00720024  RH  072%=      5-min Rain = 0
KTH1 101041Z 15007KT 07/02 A2983 RMK A01 T00710024  RH  072%=      5-min Rain = 0
KTH1 101042Z 15007KT 07/02 A2983 RMK A01 T00710024  RH  072%=      5-min Rain = 0
KTH1 101043Z 15007KT 07/02 A2982 RMK A01 T00700024  RH  073%=      5-min Rain = 0
KTH1 101044Z 15009KT 07/02 A2982 RMK A01 T00690024  RH  073%=      5-min Rain = 0
KTH1 101045Z 15008KT 07/02 A2982 RMK A01 T00690024  RH  073%=      5-min Rain = 0
KTH1 101046Z 15008KT 07/02 A2982 RMK A01 T00690024  RH  073%=      5-min Rain = 0
KTH1 101047Z 16007KT 07/02 A2982 RMK A01 T00690024  RH  073%=      5-min Rain = 0
KTH1 101048Z 15007KT 07/02 A2982 RMK A01 T00690024  RH  073%=      5-min Rain = 0
KTH1 101049Z 15006KT 07/03 A2982 RMK A01 T00690025  RH  073%=      5-min Rain = 0
KTH1 101050Z 15007KT 07/02 A2982 RMK A01 T00690024  RH  073%=      5-min Rain = 0
KTH1 101051Z 15007KT 07/02 A2982 RMK A01 T00690024  RH  073%=      5-min Rain = 0
KTH1 101052Z 15006KT 07/03 A2982 RMK A01 T00690025  RH  074%=      5-min Rain = 0
KTH1 101053Z 15007KT 07/03 A2982 RMK A01 T00690025  RH  073%=      5-min Rain = 0
KTH1 101054Z 15008KT 07/03 A2982 RMK A01 T00690025  RH  073%=      5-min Rain = 0
KTH1 101055Z 14007KT 07/03 A2982 RMK A01 T00690025  RH  074%=      5-min Rain = 0
KTH1 101056Z 15006KT 07/03 A2982 RMK A01 T00690025  RH  073%=      5-min Rain = 0
KTH1 101057Z 14007KT 07/03 A2982 RMK A01 T00690025  RH  074%=      5-min Rain = 0
KTH1 101058Z 14006KT 07/02 A2982 RMK A01 T00680024  RH  074%=      5-min Rain = 0
KTH1 101059Z 15006KT 07/02 A2982 RMK A01 T00670024  RH  074%=      5-min Rain = 0
KTH1 101100Z 15006KT 07/02 A2982 RMK A01 T00670024  RH  074%=      5-min Rain = 0
KTH1 101101Z 14006KT 07/02 A2982 RMK A01 T00660024  RH  074%=      5-min Rain = 0
KTH1 101102Z 14006KT 07/02 A2982 RMK A01 T00660024  RH  074%=      5-min Rain = 0
KTH1 101103Z 14006KT 07/02 A2982 RMK A01 T00650023  RH  075%=      5-min Rain = 0
KTH1 101104Z 14007KT 06/02 A2982 RMK A01 T00640023  RH  075%=      5-min Rain = 0
KTH1 101105Z 14007KT 06/02 A2982 RMK A01 T00630023  RH  075%=      5-min Rain = 0
KTH1 101106Z 13006KT 06/02 A2982 RMK A01 T00620023  RH  076%=      5-min Rain = 0
KTH1 101107Z 14007KT 06/02 A2982 RMK A01 T00620023  RH  076%=      5-min Rain = 0
KTH1 101108Z 14006KT 06/02 A2982 RMK A01 T00610022  RH  076%=      5-min Rain = 0
KTH1 101109Z 14007KT 06/02 A2982 RMK A01 T00610023  RH  077%=      5-min Rain = 0
KTH1 101110Z 14006KT 06/02 A2982 RMK A01 T00600022  RH  077%=      5-min Rain = 0
KTH1 101111Z 14007KT 06/02 A2982 RMK A01 T00590022  RH  077%=      5-min Rain = 0
KTH1 101112Z 14007KT 06/02 A2982 RMK A01 T00590023  RH  077%=      5-min Rain = 0
KTH1 101113Z 14007KT 06/02 A2982 RMK A01 T00590023  RH  077%=      5-min Rain = 0
KTH1 101114Z 14007KT 06/02 A2982 RMK A01 T00590023  RH  077%=      5-min Rain = 0
KTH1 101115Z 15007KT 06/02 A2982 RMK A01 T00590023  RH  078%=      5-min Rain = 0
KTH1 101116Z 14007KT 06/02 A2982 RMK A01 T00580023  RH  078%=      5-min Rain = 0
KTH1 101117Z 15007KT 06/02 A2982 RMK A01 T00580023  RH  078%=      5-min Rain = 0
KTH1 101118Z 15007KT 06/02 A2982 RMK A01 T00580023  RH  078%=      5-min Rain = 0
KTH1 101119Z 15007KT 06/02 A2982 RMK A01 T00580023  RH  078%=      5-min Rain = 0
KTH1 101120Z 15007KT 06/02 A2982 RMK A01 T00590023  RH  078%=      5-min Rain = 0
KTH1 101121Z 15007KT 06/02 A2982 RMK A01 T00590023  RH  078%=      5-min Rain = 0
KTH1 101122Z 15007KT 06/02 A2982 RMK A01 T00590024  RH  078%=      5-min Rain = 0
KTH1 101123Z 15007KT 06/02 A2982 RMK A01 T00590024  RH  078%=      5-min Rain = 0
KTH1 101124Z 15007KT 06/02 A2982 RMK A01 T00600024  RH  078%=      5-min Rain = 0
KTH1 101125Z 15007KT 06/02 A2982 RMK A01 T00600024  RH  078%=      5-min Rain = 0
KTH1 101126Z 15007KT 06/02 A2982 RMK A01 T00610024  RH  078%=      5-min Rain = 0
KTH1 101127Z 15007KT 06/02 A2982 RMK A01 T00600024  RH  077%=      5-min Rain = 0
KTH1 101128Z 15007KT 06/02 A2982 RMK A01 T00600024  RH  077%=      5-min Rain = 0
KTH1 101129Z 15007KT 06/02 A2982 RMK A01 T00600024  RH  077%=      5-min Rain = 0
KTH1 101130Z 15007KT 06/02 A2982 RMK A01 T00600024  RH  078%=      5-min Rain = 0
KTH1 101131Z 15007KT 06/02 A2982 RMK A01 T00600024  RH  078%=      5-min Rain = 0
KTH1 101132Z 15007KT 06/02 A2982 RMK A01 T00600024  RH  078%=      5-min Rain = 0
KTH1 101133Z 15007KT 06/02 A2982 RMK A01 T00600024  RH  078%=      5-min Rain = 0
KTH1 101134Z 15007KT 06/02 A2982 RMK A01 T00600024  RH  078%=      5-min Rain = 0
KTH1 101135Z 15007KT 06/02 A2982 RMK A01 T00600024  RH  078%=      5-min Rain = 0
KTH1 101136Z 15007KT 06/02 A2982 RMK A01 T00600024  RH  078%=      5-min Rain = 0
KTH1 101137Z 15007KT 06/02 A2982 RMK A01 T00600024  RH  078%=      5-min Rain = 0
KTH1 101138Z 16007KT 06/02 A2982 RMK A01 T00600024  RH  077%=      5-min Rain = 0
KTH1 101139Z 16008KT 06/02 A2982 RMK A01 T00610024  RH  077%=      5-min Rain = 0
KTH1 101140Z 16007KT 06/02 A2982 RMK A01 T00610024  RH  077%=      5-min Rain = 0
KTH1 101141Z 16008KT 06/02 A2982 RMK A01 T00610024  RH  077%=      5-min Rain = 0
KTH1 101142Z 16008KT 06/02 A2982 RMK A01 T00610024  RH  077%=      5-min Rain = 0
KTH1 101143Z 16008KT 06/02 A2982 RMK A01 T00610024  RH  077%=      5-min Rain = 0
KTH1 101144Z 16007KT 06/02 A2982 RMK A01 T00600023  RH  077%=      5-min Rain = 0
KTH1 101145Z 16007KT 06/02 A2982 RMK A01 T00600024  RH  077%=      5-min Rain = 0
KTH1 101146Z 16007KT 06/02 A2982 RMK A01 T00600023  RH  077%=      5-min Rain = 0
KTH1 101147Z 16007KT 06/02 A2982 RMK A01 T00600023  RH  077%=      5-min Rain = 0
KTH1 101148Z 16006KT 06/02 A2982 RMK A01 T00600023  RH  077%=      5-min Rain = 0
KTH1 101149Z 16006KT 06/02 A2982 RMK A01 T00600023  RH  077%=      5-min Rain = 0
KTH1 101150Z 16005KT 06/02 A2982 RMK A01 T00600023  RH  077%=      5-min Rain = 0
KTH1 101151Z 16005KT 06/02 A2982 RMK A01 T00590023  RH  077%=      5-min Rain = 0
KTH1 101152Z 16006KT 06/02 A2982 RMK A01 T00580022  RH  078%=      5-min Rain = 0
KTH1 101153Z 16007KT 06/02 A2982 RMK A01 T00580023  RH  078%=      5-min Rain = 0
KTH1 101154Z 15007KT 06/02 A2982 RMK A01 T00580023  RH  078%=      5-min Rain = 0
KTH1 101155Z 16006KT 06/02 A2982 RMK A01 T00580023  RH  078%=      5-min Rain = 0
KTH1 101156Z 15007KT 06/02 A2982 RMK A01 T00580023  RH  078%=      5-min Rain = 0
KTH1 101157Z 16007KT 06/02 A2982 RMK A01 T00580023  RH  078%=      5-min Rain = 0
KTH1 101158Z 15007KT 06/02 A2982 RMK A01 T00580023  RH  078%=      5-min Rain = 0
KTH1 101159Z 15007KT 06/02 A2982 RMK A01 T00590023  RH  078%=      5-min Rain = 0
KTH1 101200Z 15008KT 06/02 A2982 RMK A01 T00590023  RH  078%=      5-min Rain = 0
KTH1 101201Z 15007KT 06/02 A2982 RMK A01 T00590024  RH  078%=      5-min Rain = 0
KTH1 101202Z 15008KT 06/02 A2982 RMK A01 T00600024  RH  078%=      5-min Rain = 0
KTH1 101203Z 15007KT 06/02 A2982 RMK A01 T00600024  RH  077%=      5-min Rain = 0
KTH1 101204Z 15008KT 06/02 A2982 RMK A01 T00600024  RH  078%=      5-min Rain = 0
KTH1 101205Z 15008KT 06/02 A2982 RMK A01 T00600024  RH  078%=      5-min Rain = 0
KTH1 101206Z 15007KT 06/02 A2982 RMK A01 T00600024  RH  078%=      5-min Rain = 0
KTH1 101207Z 16008KT 06/02 A2982 RMK A01 T00600024  RH  078%=      5-min Rain = 0
KTH1 101208Z 15008KT 06/02 A2982 RMK A01 T00600023  RH  078%=      5-min Rain = 0
KTH1 101209Z 15007KT 06/02 A2982 RMK A01 T00600024  RH  078%=      5-min Rain = 0
KTH1 101210Z 15008KT 06/02 A2982 RMK A01 T00590023  RH  078%=      5-min Rain = 0
KTH1 101211Z 15008KT 06/02 A2982 RMK A01 T00590023  RH  078%=      5-min Rain = 0
KTH1 101212Z 15008KT 06/02 A2982 RMK A01 T00590024  RH  078%=      5-min Rain = 0
KTH1 101213Z 15008KT 06/02 A2982 RMK A01 T00590024  RH  078%=      5-min Rain = 0
KTH1 101214Z 15008KT 06/02 A2982 RMK A01 T00590024  RH  078%=      5-min Rain = 0
KTH1 101215Z 15008KT 06/02 A2982 RMK A01 T00590024  RH  078%=      5-min Rain = 0
KTH1 101216Z 15008KT 06/02 A2982 RMK A01 T00580024  RH  078%=      5-min Rain = 0
KTH1 101217Z 16008KT 06/02 A2982 RMK A01 T00580024  RH  079%=      5-min Rain = 0
KTH1 101218Z 16008KT 06/02 A2982 RMK A01 T00590024  RH  078%=      5-min Rain = 0
KTH1 101219Z 16008KT 06/02 A2982 RMK A01 T00590024  RH  078%=      5-min Rain = 0
KTH1 101220Z 16008KT 06/02 A2982 RMK A01 T00590024  RH  078%=      5-min Rain = 0
KTH1 101221Z 16007KT 06/02 A2982 RMK A01 T00590024  RH  079%=      5-min Rain = 0
KTH1 101222Z 16008KT 06/02 A2982 RMK A01 T00580024  RH  079%=      5-min Rain = 0
KTH1 101223Z 16008KT 06/02 A2982 RMK A01 T00580024  RH  079%=      5-min Rain = 0
KTH1 101224Z 15008KT 06/02 A2982 RMK A01 T00580024  RH  079%=      5-min Rain = 0
KTH1 101225Z 15007KT 06/02 A2982 RMK A01 T00590024  RH  079%=      5-min Rain = 0
KTH1 101226Z 15008KT 06/02 A2982 RMK A01 T00590024  RH  078%=      5-min Rain = 0
KTH1 101227Z 15008KT 06/02 A2982 RMK A01 T00580024  RH  078%=      5-min Rain = 0
KTH1 101228Z 16007KT 06/02 A2982 RMK A01 T00580024  RH  079%=      5-min Rain = 0
KTH1 101229Z 15008KT 06/02 A2982 RMK A01 T00580024  RH  079%=      5-min Rain = 0
KTH1 101230Z 16009KT 06/02 A2982 RMK A01 T00580024  RH  079%=      5-min Rain = 0
KTH1 101231Z 15008KT 06/02 A2982 RMK A01 T00580024  RH  079%=      5-min Rain = 0
KTH1 101232Z 15008KT 06/02 A2982 RMK A01 T00590024  RH  079%=      5-min Rain = 0
KTH1 101233Z 16008KT 06/02 A2982 RMK A01 T00590024  RH  078%=      5-min Rain = 0
KTH1 101234Z 15007KT 06/02 A2982 RMK A01 T00580024  RH  079%=      5-min Rain = 0
KTH1 101235Z 16009KT 06/02 A2982 RMK A01 T00580024  RH  079%=      5-min Rain = 0
KTH1 101236Z 16008KT 06/02 A2982 RMK A01 T00580024  RH  079%=      5-min Rain = 0
KTH1 101237Z 16008KT 06/02 A2982 RMK A01 T00580024  RH  079%=      5-min Rain = 0
KTH1 101238Z 16008KT 06/02 A2982 RMK A01 T00580024  RH  079%=      5-min Rain = 0
KTH1 101239Z 16009KT 06/02 A2982 RMK A01 T00580024  RH  079%=      5-min Rain = 0
KTH1 101240Z 16009KT 06/02 A2982 RMK A01 T00590024  RH  079%=      5-min Rain = 0
KTH1 101241Z 16008KT 06/02 A2982 RMK A01 T00590024  RH  078%=      5-min Rain = 0
KTH1 101242Z 16009KT 06/02 A2982 RMK A01 T00590024  RH  078%=      5-min Rain = 0
KTH1 101243Z 16008KT 06/02 A2982 RMK A01 T00590024  RH  078%=      5-min Rain = 0
KTH1 101244Z 16009KT 06/02 A2982 RMK A01 T00590024  RH  079%=      5-min Rain = 0
KTH1 101245Z 16008KT 06/02 A2982 RMK A01 T00580024  RH  079%=      5-min Rain = 0
KTH1 101246Z 16009KT 06/03 A2982 RMK A01 T00590025  RH  079%=      5-min Rain = 0
KTH1 101247Z 16009KT 06/02 A2982 RMK A01 T00590024  RH  079%=      5-min Rain = 0
KTH1 101248Z 16009KT 06/02 A2982 RMK A01 T00590024  RH  078%=      5-min Rain = 0
KTH1 101249Z 15010KT 06/02 A2982 RMK A01 T00590024  RH  078%=      5-min Rain = 0
KTH1 101250Z 15009KT 06/02 A2982 RMK A01 T00590024  RH  078%=      5-min Rain = 0
KTH1 101251Z 15009KT 06/02 A2982 RMK A01 T00590024  RH  078%=      5-min Rain = 0
KTH1 101252Z 16010KT 06/02 A2982 RMK A01 T00590024  RH  078%=      5-min Rain = 0
KTH1 101253Z 16009KT 06/02 A2982 RMK A01 T00580024  RH  079%=      5-min Rain = 0
KTH1 101254Z 15009KT 06/02 A2981 RMK A01 T00580024  RH  079%=      5-min Rain = 0
KTH1 101255Z 16010KT 06/02 A2981 RMK A01 T00580024  RH  079%=      5-min Rain = 0
KTH1 101256Z 15009KT 06/02 A2981 RMK A01 T00580024  RH  079%=      5-min Rain = 0
KTH1 101257Z 16010KT 06/02 A2981 RMK A01 T00570024  RH  079%=      5-min Rain = 0
KTH1 101258Z 16010KT 06/02 A2981 RMK A01 T00570024  RH  079%=      5-min Rain = 0
KTH1 101259Z 15009KT 06/02 A2981 RMK A01 T00570024  RH  079%=      5-min Rain = 0
KTH1 101300Z 16009KT 06/02 A2981 RMK A01 T00570024  RH  079%=      5-min Rain = 0
KTH1 101301Z 15010KT 06/02 A2981 RMK A01 T00570023  RH  079%=      5-min Rain = 0
KTH1 101302Z 16009KT 06/02 A2981 RMK A01 T00560023  RH  079%=      5-min Rain = 0
KTH1 101303Z 15009KT 06/02 A2981 RMK A01 T00560023  RH  080%=      5-min Rain = 0
KTH1 101304Z 16009KT 06/02 A2981 RMK A01 T00560023  RH  080%=      5-min Rain = 0
KTH1 101305Z 15009KT 06/02 A2981 RMK A01 T00560023  RH  080%=      5-min Rain = 0
KTH1 101306Z 15009KT 06/02 A2981 RMK A01 T00550023  RH  080%=      5-min Rain = 0
KTH1 101307Z 15008KT 06/02 A2981 RMK A01 T00550023  RH  080%=      5-min Rain = 0
KTH1 101308Z 15009KT 06/02 A2981 RMK A01 T00550023  RH  080%=      5-min Rain = 0
KTH1 101309Z 15008KT 06/02 A2981 RMK A01 T00550023  RH  080%=      5-min Rain = 0
KTH1 101310Z 15009KT 05/02 A2981 RMK A01 T00540023  RH  080%=      5-min Rain = 0
KTH1 101311Z 15009KT 06/02 A2981 RMK A01 T00550023  RH  080%=      5-min Rain = 0
KTH1 101312Z 15009KT 05/02 A2981 RMK A01 T00540023  RH  080%=      5-min Rain = 0
KTH1 101313Z 15008KT 06/02 A2981 RMK A01 T00550023  RH  080%=      5-min Rain = 0
KTH1 101314Z 15009KT 06/02 A2981 RMK A01 T00550023  RH  080%=      5-min Rain = 0
KTH1 101315Z 15009KT 06/02 A2981 RMK A01 T00550023  RH  080%=      5-min Rain = 0
KTH1 101316Z 15008KT 06/02 A2981 RMK A01 T00550023  RH  080%=      5-min Rain = 0
KTH1 101317Z 16009KT 06/02 A2981 RMK A01 T00560023  RH  080%=      5-min Rain = 0
KTH1 101318Z 16009KT 06/02 A2981 RMK A01 T00560023  RH  079%=      5-min Rain = 0
KTH1 101319Z 16009KT 06/02 A2982 RMK A01 T00560024  RH  079%=      5-min Rain = 0
KTH1 101320Z 16008KT 06/02 A2982 RMK A01 T00570024  RH  079%=      5-min Rain = 0
KTH1 101321Z 16008KT 06/02 A2981 RMK A01 T00570023  RH  079%=      5-min Rain = 0
KTH1 101322Z 16009KT 06/02 A2981 RMK A01 T00560023  RH  079%=      5-min Rain = 0
KTH1 101323Z 16009KT 06/02 A2981 RMK A01 T00560023  RH  079%=      5-min Rain = 0
KTH1 101324Z 15009KT 06/02 A2981 RMK A01 T00560023  RH  079%=      5-min Rain = 0
KTH1 101325Z 15009KT 06/02 A2981 RMK A01 T00550023  RH  080%=      5-min Rain = 0
KTH1 101326Z 15008KT 06/02 A2981 RMK A01 T00550023  RH  080%=      5-min Rain = 0
KTH1 101327Z 16009KT 06/02 A2981 RMK A01 T00550023  RH  080%=      5-min Rain = 0
KTH1 101328Z 15009KT 05/02 A2981 RMK A01 T00540023  RH  080%=      5-min Rain = 0
KTH1 101329Z 15008KT 05/02 A2981 RMK A01 T00540023  RH  080%=      5-min Rain = 0
KTH1 101330Z 15009KT 05/02 A2981 RMK A01 T00540022  RH  080%=      5-min Rain = 0
KTH1 101331Z 15009KT 05/02 A2981 RMK A01 T00540022  RH  080%=      5-min Rain = 0
KTH1 101332Z 15009KT 05/02 A2981 RMK A01 T00530022  RH  080%=      5-min Rain = 0
KTH1 101333Z 15009KT 05/02 A2981 RMK A01 T00530022  RH  081%=      5-min Rain = 0
KTH1 101334Z 15009KT 05/02 A2981 RMK A01 T00530022  RH  081%=      5-min Rain = 0
KTH1 101335Z 15009KT 05/02 A2981 RMK A01 T00530022  RH  081%=      5-min Rain = 0
KTH1 101336Z 15009KT 05/02 A2981 RMK A01 T00530022  RH  081%=      5-min Rain = 0
KTH1 101337Z 15008KT 05/02 A2981 RMK A01 T00530022  RH  081%=      5-min Rain = 0
KTH1 101338Z 15007KT 05/02 A2981 RMK A01 T00530022  RH  081%=      5-min Rain = 0
KTH1 101339Z 15008KT 05/02 A2981 RMK A01 T00530022  RH  081%=      5-min Rain = 0
KTH1 101340Z 15008KT 05/02 A2981 RMK A01 T00530022  RH  081%=      5-min Rain = 0
KTH1 101341Z 15009KT 05/02 A2981 RMK A01 T00520022  RH  081%=      5-min Rain = 0
KTH1 101342Z 15008KT 05/02 A2981 RMK A01 T00530023  RH  081%=      5-min Rain = 0
KTH1 101343Z 15008KT 05/02 A2981 RMK A01 T00530022  RH  081%=      5-min Rain = 0
KTH1 101344Z 15009KT 05/02 A2981 RMK A01 T00530022  RH  081%=      5-min Rain = 0
KTH1 101345Z 15009KT 05/02 A2981 RMK A01 T00530022  RH  081%=      5-min Rain = 0
KTH1 101346Z 15009KT 05/02 A2981 RMK A01 T00530022  RH  081%=      5-min Rain = 0
KTH1 101347Z 15008KT 05/02 A2981 RMK A01 T00530022  RH  081%=      5-min Rain = 0
KTH1 101348Z 15009KT 05/02 A2981 RMK A01 T00530023  RH  081%=      5-min Rain = 0
KTH1 101349Z 15008KT 05/02 A2981 RMK A01 T00530023  RH  081%=      5-min Rain = 0
KTH1 101350Z 15009KT 05/02 A2981 RMK A01 T00530023  RH  081%=      5-min Rain = 0
KTH1 101351Z 15009KT 05/02 A2981 RMK A01 T00530023  RH  081%=      5-min Rain = 0
KTH1 101352Z 15008KT 05/02 A2981 RMK A01 T00530023  RH  081%=      5-min Rain = 0
KTH1 101353Z 15009KT 05/02 A2981 RMK A01 T00540024  RH  081%=      5-min Rain = 0
KTH1 101354Z 15009KT 05/02 A2981 RMK A01 T00540024  RH  081%=      5-min Rain = 0
KTH1 101355Z 15009KT 06/02 A2981 RMK A01 T00550024  RH  080%=      5-min Rain = 0
KTH1 101356Z 15009KT 06/02 A2981 RMK A01 T00550024  RH  080%=      5-min Rain = 0
KTH1 101357Z 15010KT 06/02 A2981 RMK A01 T00550024  RH  080%=      5-min Rain = 0
KTH1 101358Z 15009KT 06/02 A2981 RMK A01 T00560024  RH  080%=      5-min Rain = 0
KTH1 101359Z 15010KT 06/02 A2981 RMK A01 T00560024  RH  080%=      5-min Rain = 0
KTH1 101400Z 15010KT 06/02 A2981 RMK A01 T00560024  RH  080%=      5-min Rain = 0
KTH1 101401Z 15009KT 06/02 A2981 RMK A01 T00570024  RH  080%=      5-min Rain = 0
KTH1 101402Z 15009KT 06/02 A2981 RMK A01 T00570024  RH  079%=      5-min Rain = 0
KTH1 101403Z 15010KT 06/03 A2981 RMK A01 T00580025  RH  079%=      5-min Rain = 0
KTH1 101404Z 15011KT 06/03 A298 RMK A01 T00590025  RH  079%=      5-min Rain = 0
KTH1 101405Z 15010KT 06/03 A298 RMK A01 T00600025  RH  078%=      5-min Rain = 0
KTH1 101406Z 15009KT 06/03 A298 RMK A01 T00600025  RH  078%=      5-min Rain = 0
KTH1 101407Z 15009KT 06/03 A298 RMK A01 T00600025  RH  078%=      5-min Rain = 0
KTH1 101408Z 15009KT 06/03 A298 RMK A01 T00600025  RH  078%=      5-min Rain = 0
KTH1 101409Z 15009KT 06/03 A298 RMK A01 T00600025  RH  078%=      5-min Rain = 0
KTH1 101410Z 15009KT 06/02 A298 RMK A01 T00600024  RH  078%=      5-min Rain = 0
KTH1 101411Z 15010KT 06/03 A298 RMK A01 T00610025  RH  078%=      5-min Rain = 0
KTH1 101412Z 15009KT 06/03 A298 RMK A01 T00600025  RH  078%=      5-min Rain = 0
KTH1 101413Z 15008KT 06/03 A298 RMK A01 T00610025  RH  078%=      5-min Rain = 0
KTH1 101414Z 15008KT 06/03 A298 RMK A01 T00610025  RH  078%=      5-min Rain = 0
KTH1 101415Z 15009KT 06/03 A298 RMK A01 T00610025  RH  078%=      5-min Rain = 0
KTH1 101416Z 15009KT 06/03 A298 RMK A01 T00600025  RH  078%=      5-min Rain = 0
KTH1 101417Z 14008KT 06/03 A298 RMK A01 T00600025  RH  078%=      5-min Rain = 0
KTH1 101418Z 15009KT 06/03 A298 RMK A01 T00600025  RH  078%=      5-min Rain = 0
KTH1 101419Z 15009KT 06/03 A298 RMK A01 T00610025  RH  078%=      5-min Rain = 0
KTH1 101420Z 15009KT 06/03 A298 RMK A01 T00620026  RH  078%=      5-min Rain = 0
KTH1 101421Z 15011KT 06/03 A298 RMK A01 T00620025  RH  078%=      5-min Rain = 0
KTH1 101422Z 15008KT 06/03 A298 RMK A01 T00620026  RH  077%=      5-min Rain = 0
KTH1 101423Z 15007KT 06/03 A298 RMK A01 T00620025  RH  077%=      5-min Rain = 0
KTH1 101424Z 15009KT 06/03 A298 RMK A01 T00630026  RH  077%=      5-min Rain = 0
KTH1 101425Z 15008KT 06/03 A298 RMK A01 T00630026  RH  077%=      5-min Rain = 0
KTH1 101426Z 15009KT 06/03 A298 RMK A01 T00640026  RH  077%=      5-min Rain = 0
KTH1 101427Z 15008KT 06/03 A298 RMK A01 T00640027  RH  077%=      5-min Rain = 0
KTH1 101428Z 15009KT 07/03 A298 RMK A01 T00650027  RH  076%=      5-min Rain = 0
KTH1 101429Z 14009KT 07/03 A298 RMK A01 T00660027  RH  076%=      5-min Rain = 0
KTH1 101430Z 15009KT 07/03 A298 RMK A01 T00670028  RH  076%=      5-min Rain = 0
KTH1 101431Z 15008KT 07/03 A298 RMK A01 T00680028  RH  075%=      5-min Rain = 0
KTH1 101432Z 15009KT 07/03 A298 RMK A01 T00690028  RH  075%=      5-min Rain = 0
KTH1 101433Z 15009KT 07/03 A298 RMK A01 T00710029  RH  075%=      5-min Rain = 0
KTH1 101434Z 15010KT 07/03 A298 RMK A01 T00710029  RH  074%=      5-min Rain = 0
KTH1 101435Z 15010KT 07/03 A298 RMK A01 T00720029  RH  074%=      5-min Rain = 0
KTH1 101436Z 15010KT 07/03 A298 RMK A01 T00730030  RH  074%=      5-min Rain = 0
KTH1 101437Z 15009KT 07/03 A298 RMK A01 T00740030  RH  074%=      5-min Rain = 0
KTH1 101438Z 15010KT 08/03 A298 RMK A01 T00750030  RH  073%=      5-min Rain = 0
KTH1 101439Z 15010KT 08/03 A298 RMK A01 T00750030  RH  073%=      5-min Rain = 0
KTH1 101440Z 15009KT 08/03 A298 RMK A01 T00760030  RH  073%=      5-min Rain = 0
KTH1 101441Z 15010KT 08/03 A298 RMK A01 T00770031  RH  073%=      5-min Rain = 0
KTH1 101442Z 15010KT 08/03 A298 RMK A01 T00780031  RH  072%=      5-min Rain = 0
KTH1 101443Z 15009KT 08/03 A298 RMK A01 T00780031  RH  072%=      5-min Rain = 0
KTH1 101444Z 15009KT 08/03 A298 RMK A01 T00780031  RH  072%=      5-min Rain = 0
KTH1 101445Z 14008KT 08/03 A298 RMK A01 T00790031  RH  072%=      5-min Rain = 0
KTH1 101446Z 15008KT 08/03 A298 RMK A01 T00790032  RH  072%=      5-min Rain = 0
KTH1 101447Z 15009KT 08/03 A298 RMK A01 T00800032  RH  072%=      5-min Rain = 0
KTH1 101448Z 15009KT 08/03 A298 RMK A01 T00800032  RH  072%=      5-min Rain = 0
KTH1 101449Z 15008KT 08/03 A298 RMK A01 T00810032  RH  071%=      5-min Rain = 0
KTH1 101450Z 15008KT 08/03 A298 RMK A01 T00820033  RH  071%=      5-min Rain = 0
KTH1 101451Z 15011KT 08/03 A298 RMK A01 T00830034  RH  071%=      5-min Rain = 0
KTH1 101452Z 15011KT 08/03 A298 RMK A01 T00830032  RH  070%=      5-min Rain = 0
KTH1 101453Z 14009KT 08/03 A298 RMK A01 T00830032  RH  070%=      5-min Rain = 0
KTH1 101454Z 15009KT 08/03 A298 RMK A01 T00840034  RH  071%=      5-min Rain = 0
KTH1 101455Z 14010KT 09/03 A298 RMK A01 T00850033  RH  070%=      5-min Rain = 0
KTH1 101456Z 15012KT 09/03 A298 RMK A01 T00850033  RH  070%=      5-min Rain = 0
KTH1 101457Z 15015KT 09/03 A298 RMK A01 T00860033  RH  069%=      5-min Rain = 0
KTH1 101458Z 15013KT 09/03 A298 RMK A01 T00860033  RH  069%=      5-min Rain = 0
KTH1 101459Z 14010KT 09/03 A298 RMK A01 T00870033  RH  069%=      5-min Rain = 0
KTH1 101500Z 15011KT 09/04 A298 RMK A01 T00880035  RH  069%=      5-min Rain = 0
KTH1 101501Z 15010KT 09/04 A298 RMK A01 T00900035  RH  068%=      5-min Rain = 0
KTH1 101502Z 15011KT 09/04 A298 RMK A01 T00910035  RH  068%=      5-min Rain = 0
KTH1 101503Z 15011KT 09/04 A298 RMK A01 T00920035  RH  068%=      5-min Rain = 0
KTH1 101504Z 15010G15KT 09/04 A298 RMK A01 T00930035  RH  067%=      5-min Rain = 0
KTH1 101505Z 15011KT 09/04 A298 RMK A01 T00930036  RH  067%=      5-min Rain = 0
KTH1 101506Z 16013KT 09/04 A298 RMK A01 T00940036  RH  067%=      5-min Rain = 0
KTH1 101507Z 15013KT 10/04 A298 RMK A01 T00950035  RH  066%=      5-min Rain = 0
KTH1 101508Z 15014KT 10/04 A298 RMK A01 T00950035  RH  066%=      5-min Rain = 0
KTH1 101509Z 15012KT 10/04 A298 RMK A01 T00960035  RH  066%=      5-min Rain = 0
KTH1 101510Z 16011KT 10/04 A298 RMK A01 T00970035  RH  065%=      5-min Rain = 0
KTH1 101511Z 15011KT 10/04 A298 RMK A01 T00980035  RH  065%=      5-min Rain = 0
KTH1 101512Z 15009KT 10/04 A298 RMK A01 T00980036  RH  065%=      5-min Rain = 0
KTH1 101513Z 15012G18KT 10/04 A298 RMK A01 T00990036  RH  065%=      5-min Rain = 0
KTH1 101514Z 16013KT 10/03 A298 RMK A01 T00990034  RH  064%=      5-min Rain = 0
KTH1 101515Z 15013G18KT 10/04 A298 RMK A01 T01000035  RH  064%=      5-min Rain = 0
KTH1 101516Z 16013KT 10/03 A298 RMK A01 T00990034  RH  064%=      5-min Rain = 0
KTH1 101517Z 15012KT 10/04 A298 RMK A01 T01000035  RH  064%=      5-min Rain = 0
KTH1 101518Z 16010KT 10/04 A298 RMK A01 T01020036  RH  064%=      5-min Rain = 0
KTH1 101519Z 15009KT 10/04 A298 RMK A01 T01040037  RH  063%=      5-min Rain = 0
KTH1 101520Z 16012KT 11/04 A298 RMK A01 T01070037  RH  062%=      5-min Rain = 0
KTH1 101521Z 15011KT 11/04 A298 RMK A01 T01070037  RH  062%=      5-min Rain = 0
KTH1 101522Z 14010KT 11/04 A2979 RMK A01 T01080037  RH  062%=      5-min Rain = 0
KTH1 101523Z 15012KT 11/04 A2979 RMK A01 T01080037  RH  062%=      5-min Rain = 0
KTH1 101524Z 16011G17KT 11/04 A2979 RMK A01 T01080036  RH  061%=      5-min Rain = 0
KTH1 101525Z 16012KT 11/04 A2979 RMK A01 T01080036  RH  061%=      5-min Rain = 0
KTH1 101526Z 15010KT 11/04 A2979 RMK A01 T01080036  RH  061%=      5-min Rain = 0
KTH1 101527Z 16013KT 11/04 A2979 RMK A01 T01100037  RH  061%=      5-min Rain = 0
KTH1 101528Z 15012KT 11/04 A2979 RMK A01 T01110036  RH  060%=      5-min Rain = 0
KTH1 101529Z 16015G20KT 11/04 A2979 RMK A01 T01100036  RH  060%=      5-min Rain = 0
KTH1 101530Z 16012G17KT 11/04 A2979 RMK A01 T01100035  RH  060%=      5-min Rain = 0
KTH1 101531Z 16013KT 11/04 A2979 RMK A01 T01100035  RH  060%=      5-min Rain = 0
KTH1 101532Z 16014KT 11/04 A2979 RMK A01 T01100035  RH  060%=      5-min Rain = 0
KTH1 101533Z 16013KT 11/04 A2979 RMK A01 T01110036  RH  060%=      5-min Rain = 0
KTH1 101534Z 15013G18KT 11/04 A2979 RMK A01 T01110036  RH  060%=      5-min Rain = 0
KTH1 101535Z 17010KT 11/04 A298 RMK A01 T01110036  RH  060%=      5-min Rain = 0
KTH1 101536Z 17012KT 11/04 A298 RMK A01 T01120036  RH  060%=      5-min Rain = 0
KTH1 101537Z 16011KT 11/04 A298 RMK A01 T01130036  RH  059%=      5-min Rain = 0
KTH1 101538Z 16013KT 11/04 A298 RMK A01 T01130036  RH  059%=      5-min Rain = 0
KTH1 101539Z 16011KT 11/04 A298 RMK A01 T01140037  RH  059%=      5-min Rain = 0
KTH1 101540Z 15010KT 12/04 A298 RMK A01 T01150036  RH  058%=      5-min Rain = 0
KTH1 101541Z 16012KT 12/04 A2979 RMK A01 T01160036  RH  058%=      5-min Rain = 0
KTH1 101542Z 16012KT 12/04 A2979 RMK A01 T01160036  RH  058%=      5-min Rain = 0
KTH1 101543Z 16013KT 12/04 A2979 RMK A01 T01170036  RH  058%=      5-min Rain = 0
KTH1 101544Z 15012KT 12/04 A2979 RMK A01 T01160036  RH  058%=      5-min Rain = 0
KTH1 101545Z 16013KT 12/04 A2979 RMK A01 T01160036  RH  058%=      5-min Rain = 0
KTH1 101546Z 16012KT 12/04 A2979 RMK A01 T01160036  RH  058%=      5-min Rain = 0
KTH1 101547Z 16014KT 12/04 A2979 RMK A01 T01160036  RH  058%=      5-min Rain = 0
KTH1 101548Z 16013KT 12/04 A2979 RMK A01 T01170036  RH  058%=      5-min Rain = 0
KTH1 101549Z 15011KT 12/04 A2979 RMK A01 T01180037  RH  057%=      5-min Rain = 0
KTH1 101550Z 16014G20KT 12/04 A2979 RMK A01 T01190037  RH  057%=      5-min Rain = 0
KTH1 101551Z 16013G18KT 12/04 A2979 RMK A01 T01190036  RH  057%=      5-min Rain = 0
KTH1 101552Z 16012KT 12/04 A2979 RMK A01 T01190036  RH  057%=      5-min Rain = 0
KTH1 101553Z 16012KT 12/04 A2979 RMK A01 T01190036  RH  057%=      5-min Rain = 0
KTH1 101554Z 16011KT 12/04 A2979 RMK A01 T01200037  RH  057%=      5-min Rain = 0
KTH1 101555Z 16011KT 12/04 A2979 RMK A01 T01210037  RH  057%=      5-min Rain = 0
KTH1 101556Z 17010KT 12/04 A2979 RMK A01 T01210036  RH  056%=      5-min Rain = 0
KTH1 101557Z 17009G14KT 12/04 A298 RMK A01 T01210036  RH  056%=      5-min Rain = 0
KTH1 101558Z 17012KT 12/04 A298 RMK A01 T01220037  RH  056%=      5-min Rain = 0
KTH1 101559Z 18009KT 12/04 A2981 RMK A01 T01230037  RH  056%=      5-min Rain = 0
KTH1 101600Z 17008KT 13/04 A298 RMK A01 T01260039  RH  055%=      5-min Rain = 0
KTH1 101601Z 18013KT 13/04 A298 RMK A01 T01290039  RH  054%=      5-min Rain = 0
KTH1 101602Z 17010G16KT 13/04 A298 RMK A01 T01300038  RH  054%=      5-min Rain = 0
KTH1 101603Z 18009KT 13/04 A298 RMK A01 T01310039  RH  053%=      5-min Rain = 0
KTH1 101604Z 17011KT 13/04 A298 RMK A01 T01310038  RH  053%=      5-min Rain = 0
KTH1 101605Z 17010KT 13/04 A298 RMK A01 T01310037  RH  053%=      5-min Rain = 0
KTH1 101606Z 17012KT 13/04 A298 RMK A01 T01320038  RH  053%=      5-min Rain = 0
KTH1 101607Z 18010KT 13/04 A298 RMK A01 T01320038  RH  053%=      5-min Rain = 0
KTH1 101608Z 17008G14KT 13/04 A298 RMK A01 T01330038  RH  053%=      5-min Rain = 0
KTH1 101609Z 18012KT 14/04 A298 RMK A01 T01350038  RH  052%=      5-min Rain = 0
KTH1 101610Z 17011KT 14/04 A298 RMK A01 T01370039  RH  052%=      5-min Rain = 0
KTH1 101611Z 17011KT 14/04 A298 RMK A01 T01390039  RH  051%=      5-min Rain = 0
KTH1 101612Z 17010G18KT 14/04 A298 RMK A01 T01410040  RH  050%=      5-min Rain = 0
KTH1 101613Z 17011KT 14/04 A298 RMK A01 T01440039  RH  049%=      5-min Rain = 0
KTH1 101614Z 17011G16KT 15/04 A298 RMK A01 T01450039  RH  049%=      5-min Rain = 0
KTH1 101615Z 16008KT 15/04 A2979 RMK A01 T01460039  RH  049%=      5-min Rain = 0
KTH1 101616Z 16015KT 15/04 A2979 RMK A01 T01480040  RH  048%=      5-min Rain = 0
KTH1 101617Z 17015G22KT 15/04 A298 RMK A01 T01480038  RH  047%=      5-min Rain = 0
KTH1 101618Z 16014G22KT 15/04 A298 RMK A01 T01480038  RH  048%=      5-min Rain = 0
KTH1 101619Z 16014G19KT 15/04 A298 RMK A01 T01480037  RH  047%=      5-min Rain = 0
KTH1 101620Z 16014KT 15/04 A298 RMK A01 T01470037  RH  047%=      5-min Rain = 0
KTH1 101621Z 17014G19KT 15/04 A298 RMK A01 T01460036  RH  048%=      5-min Rain = 0
KTH1 101622Z 18012KT 15/04 A298 RMK A01 T01450037  RH  048%=      5-min Rain = 0
KTH1 101623Z 18012KT 15/04 A298 RMK A01 T01450037  RH  048%=      5-min Rain = 0
KTH1 101624Z 18013G22KT 15/04 A298 RMK A01 T01460038  RH  048%=      5-min Rain = 0
KTH1 101625Z 18015G20KT 15/04 A2981 RMK A01 T01470037  RH  047%=      5-min Rain = 0
KTH1 101626Z 19014G19KT 15/04 A2981 RMK A01 T01470037  RH  048%=      5-min Rain = 0
KTH1 101627Z 18015KT 15/04 A2981 RMK A01 T01470037  RH  048%=      5-min Rain = 0
KTH1 101628Z 19014KT 15/04 A2981 RMK A01 T01460037  RH  048%=      5-min Rain = 0
KTH1 101629Z 18011G16KT 15/04 A2981 RMK A01 T01460037  RH  048%=      5-min Rain = 0
KTH1 101630Z 19011KT 15/04 A2981 RMK A01 T01470038  RH  048%=      5-min Rain = 0
KTH1 101631Z 17014KT 15/04 A2981 RMK A01 T01480037  RH  047%=      5-min Rain = 0
KTH1 101632Z 17010G16KT 15/04 A2981 RMK A01 T01470038  RH  048%=      5-min Rain = 0
KTH1 101633Z 18015KT 15/04 A2981 RMK A01 T01470037  RH  048%=      5-min Rain = 0
KTH1 101634Z 18013KT 15/04 A298 RMK A01 T01460036  RH  047%=      5-min Rain = 0
KTH1 101635Z 18015KT 14/04 A298 RMK A01 T01440036  RH  048%=      5-min Rain = 0
KTH1 101636Z 17013G19KT 14/04 A298 RMK A01 T01430036  RH  048%=      5-min Rain = 0
KTH1 101637Z 17013KT 14/04 A298 RMK A01 T01430036  RH  049%=      5-min Rain = 0
KTH1 101638Z 16015G21KT 14/04 A2979 RMK A01 T01430036  RH  049%=      5-min Rain = 0
KTH1 101639Z 16016KT 14/04 A2979 RMK A01 T01430036  RH  049%=      5-min Rain = 0
KTH1 101640Z 17013KT 14/04 A2979 RMK A01 T01440036  RH  049%=      5-min Rain = 0
KTH1 101641Z 16011KT 14/04 A2979 RMK A01 T01440037  RH  049%=      5-min Rain = 0
KTH1 101642Z 17011KT 15/04 A2979 RMK A01 T01460038  RH  048%=      5-min Rain = 0
KTH1 101643Z 16013KT 15/04 A2979 RMK A01 T01470038  RH  048%=      5-min Rain = 0
KTH1 101644Z 16014KT 15/04 A2979 RMK A01 T01470038  RH  048%=      5-min Rain = 0
KTH1 101645Z 16013G19KT 15/04 A2979 RMK A01 T01460037  RH  048%=      5-min Rain = 0
KTH1 101646Z 16013G18KT 15/04 A2979 RMK A01 T01460037  RH  048%=      5-min Rain = 0
KTH1 101647Z 16011G17KT 15/04 A2979 RMK A01 T01460038  RH  048%=      5-min Rain = 0
KTH1 101648Z 16012KT 15/04 A2979 RMK A01 T01480039  RH  048%=      5-min Rain = 0
KTH1 101649Z 17014KT 15/04 A2979 RMK A01 T01490038  RH  047%=      5-min Rain = 0
KTH1 101650Z 17013G18KT 15/04 A2979 RMK A01 T01490038  RH  047%=      5-min Rain = 0
KTH1 101651Z 17012KT 15/04 A2979 RMK A01 T01490038  RH  047%=      5-min Rain = 0
KTH1 101652Z 17014KT 15/04 A2979 RMK A01 T01500038  RH  047%=      5-min Rain = 0
KTH1 101653Z 17012G17KT 15/04 A2979 RMK A01 T01490038  RH  047%=      5-min Rain = 0
KTH1 101654Z 16010KT 15/04 A2979 RMK A01 T01490038  RH  047%=      5-min Rain = 0
KTH1 101655Z 17013G19KT 15/04 A2979 RMK A01 T01490037  RH  047%=      5-min Rain = 0
KTH1 101656Z 18011KT 15/04 A2979 RMK A01 T01480038  RH  047%=      5-min Rain = 0
KTH1 101657Z 17008KT 15/04 A2979 RMK A01 T01480038  RH  048%=      5-min Rain = 0
KTH1 101658Z 17011KT 15/04 A2979 RMK A01 T01490038  RH  048%=      5-min Rain = 0
KTH1 101659Z 17009G14KT 15/04 A2979 RMK A01 T01490038  RH  047%=      5-min Rain = 0
KTH1 101700Z 17010G17KT 15/04 A2979 RMK A01 T01500038  RH  047%=      5-min Rain = 0
KTH1 101701Z 18011KT 15/04 A2979 RMK A01 T01500038  RH  047%=      5-min Rain = 0
KTH1 101702Z 17012G17KT 15/04 A2979 RMK A01 T01500038  RH  047%=      5-min Rain = 0
KTH1 101703Z 17012KT 15/04 A2979 RMK A01 T01500037  RH  047%=      5-min Rain = 0
KTH1 101704Z 18009KT 15/04 A2978 RMK A01 T01500038  RH  047%=      5-min Rain = 0
KTH1 101705Z 18012KT 15/04 A2978 RMK A01 T01500038  RH  047%=      5-min Rain = 0
KTH1 101706Z 17010KT 15/04 A2978 RMK A01 T01510038  RH  047%=      5-min Rain = 0
KTH1 101707Z 16009KT 15/04 A2978 RMK A01 T01520039  RH  047%=      5-min Rain = 0
KTH1 101708Z 16010KT 15/04 A2978 RMK A01 T01530040  RH  047%=      5-min Rain = 0
KTH1 101709Z 16008KT 15/04 A2978 RMK A01 T01540041  RH  047%=      5-min Rain = 0
KTH1 101710Z 16012KT 16/04 A2978 RMK A01 T01560041  RH  046%=      5-min Rain = 0
KTH1 101711Z 15013KT 16/04 A2977 RMK A01 T01560039  RH  046%=      5-min Rain = 0
KTH1 101712Z 16013KT 16/04 A2977 RMK A01 T01560040  RH  046%=      5-min Rain = 0
KTH1 101713Z 17011KT 16/04 A2977 RMK A01 T01550039  RH  046%=      5-min Rain = 0
KTH1 101714Z 16010KT 16/04 A2977 RMK A01 T01550039  RH  046%=      5-min Rain = 0
KTH1 101715Z 16013KT 16/04 A2977 RMK A01 T01560040  RH  046%=      5-min Rain = 0
KTH1 101716Z 15012G19KT 16/04 A2977 RMK A01 T01560039  RH  046%=      5-min Rain = 0
KTH1 101717Z 15012KT 16/04 A2977 RMK A01 T01570040  RH  046%=      5-min Rain = 0
KTH1 101718Z 15013G19KT 16/04 A2976 RMK A01 T01580039  RH  045%=      5-min Rain = 0
KTH1 101719Z 16011G16KT 16/04 A2976 RMK A01 T01590040  RH  045%=      5-min Rain = 0
KTH1 101720Z 15014KT 16/04 A2976 RMK A01 T01590040  RH  045%=      5-min Rain = 0
KTH1 101721Z 15014KT 16/04 A2976 RMK A01 T01600040  RH  045%=      5-min Rain = 0
KTH1 101722Z 16012G18KT 16/04 A2976 RMK A01 T01600040  RH  045%=      5-min Rain = 0
KTH1 101723Z 16013KT 16/04 A2976 RMK A01 T01600040  RH  045%=      5-min Rain = 0
KTH1 101724Z 16012KT 16/04 A2976 RMK A01 T01610040  RH  044%=      5-min Rain = 0
KTH1 101725Z 16016KT 16/04 A2976 RMK A01 T01610040  RH  044%=      5-min Rain = 0
KTH1 101726Z 16016KT 16/04 A2976 RMK A01 T01620039  RH  044%=      5-min Rain = 0
KTH1 101727Z 16015KT 16/04 A2976 RMK A01 T01620039  RH  044%=      5-min Rain = 0
KTH1 101728Z 16015G21KT 16/04 A2976 RMK A01 T01630040  RH  044%=      5-min Rain = 0
KTH1 101729Z 16015KT 16/04 A2975 RMK A01 T01640040  RH  044%=      5-min Rain = 0
KTH1 101730Z 16015G20KT 17/04 A2975 RMK A01 T01650040  RH  044%=      5-min Rain = 0
KTH1 101731Z 16012G17KT 17/04 A2975 RMK A01 T01660041  RH  043%=      5-min Rain = 0
KTH1 101732Z 16015KT 17/04 A2975 RMK A01 T01670041  RH  043%=      5-min Rain = 0
KTH1 101733Z 15016KT 17/04 A2974 RMK A01 T01690041  RH  043%=      5-min Rain = 0
KTH1 101734Z 16015KT 17/04 A2974 RMK A01 T01690042  RH  043%=      5-min Rain = 0
KTH1 101735Z 17015G20KT 17/04 A2974 RMK A01 T01700041  RH  042%=      5-min Rain = 0
KTH1 101736Z 17013G20KT 17/04 A2974 RMK A01 T01710041  RH  042%=      5-min Rain = 0
KTH1 101737Z 17011G21KT 17/04 A2974 RMK A01 T01720041  RH  042%=      5-min Rain = 0
KTH1 101738Z 15014KT 17/04 A2974 RMK A01 T01740042  RH  042%=      5-min Rain = 0
KTH1 101739Z 16014KT 17/04 A2974 RMK A01 T01730041  RH  042%=      5-min Rain = 0
KTH1 101740Z 17016KT 17/04 A2974 RMK A01 T01720042  RH  042%=      5-min Rain = 0
KTH1 101741Z 16014KT 17/04 A2974 RMK A01 T01720041  RH  042%=      5-min Rain = 0
KTH1 101742Z 16013G18KT 17/04 A2974 RMK A01 T01720041  RH  042%=      5-min Rain = 0
KTH1 101743Z 17014KT 17/04 A2974 RMK A01 T01730042  RH  042%=      5-min Rain = 0
KTH1 101744Z 16011KT 17/04 A2974 RMK A01 T01740042  RH  042%=      5-min Rain = 0
KTH1 101745Z 17014G20KT 18/04 A2974 RMK A01 T01750043  RH  042%=      5-min Rain = 0
KTH1 101746Z 15015KT 18/04 A2974 RMK A01 T01760043  RH  041%=      5-min Rain = 0
KTH1 101747Z 16013KT 18/04 A2974 RMK A01 T01770043  RH  041%=      5-min Rain = 0
KTH1 101748Z 16013G18KT 18/04 A2973 RMK A01 T01790043  RH  041%=      5-min Rain = 0
KTH1 101749Z 16011KT 18/04 A2973 RMK A01 T01810044  RH  040%=      5-min Rain = 0
KTH1 101750Z 17013KT 18/05 A2973 RMK A01 T01830045  RH  040%=      5-min Rain = 0
KTH1 101751Z 16013G18KT 18/04 A2973 RMK A01 T01840044  RH  039%=      5-min Rain = 0
KTH1 101752Z 17013KT 18/04 A2973 RMK A01 T01840044  RH  039%=      5-min Rain = 0
KTH1 101753Z 17013KT 18/04 A2973 RMK A01 T01830043  RH  039%=      5-min Rain = 0
KTH1 101754Z 16013KT 18/04 A2973 RMK A01 T01820043  RH  040%=      5-min Rain = 0
KTH1 101755Z 17014KT 18/04 A2973 RMK A01 T01820043  RH  040%=      5-min Rain = 0
KTH1 101756Z 18018KT 18/04 A2973 RMK A01 T01820042  RH  039%=      5-min Rain = 0
KTH1 101757Z 19016G24KT 18/04 A2973 RMK A01 T01820042  RH  039%=      5-min Rain = 0
KTH1 101758Z 18018G24KT 18/04 A2973 RMK A01 T01820041  RH  039%=      5-min Rain = 0
KTH1 101759Z 18013KT 18/04 A2973 RMK A01 T01820041  RH  039%=      5-min Rain = 0
KTH1 101800Z 18015G20KT 18/04 A2973 RMK A01 T01820042  RH  039%=      5-min Rain = 0
KTH1 101801Z 18015KT 18/04 A2973 RMK A01 T01830042  RH  039%=      5-min Rain = 0
KTH1 101802Z 18010KT 18/04 A2973 RMK A01 T01840043  RH  039%=      5-min Rain = 0
KTH1 101803Z 18014KT 19/04 A2973 RMK A01 T01860043  RH  039%=      5-min Rain = 0
KTH1 101804Z 18014KT 19/04 A2973 RMK A01 T01870042  RH  038%=      5-min Rain = 0
KTH1 101805Z 18011G16KT 19/04 A2973 RMK A01 T01860042  RH  038%=      5-min Rain = 0
KTH1 101806Z 17010KT 19/04 A2973 RMK A01 T01870044  RH  039%=      5-min Rain = 0
KTH1 101807Z 17012G17KT 19/05 A2973 RMK A01 T01900046  RH  039%=      5-min Rain = 0
KTH1 101808Z 16014G19KT 19/04 A2972 RMK A01 T01910044  RH  038%=      5-min Rain = 0
KTH1 101809Z 16017G23KT 19/04 A2972 RMK A01 T01890043  RH  038%=      5-min Rain = 0
KTH1 101810Z 17016KT 19/04 A2972 RMK A01 T01880043  RH  038%=      5-min Rain = 0
KTH1 101811Z 17013G19KT 19/04 A2973 RMK A01 T01860042  RH  039%=      5-min Rain = 0
KTH1 101812Z 18012G17KT 19/04 A2973 RMK A01 T01850043  RH  039%=      5-min Rain = 0
KTH1 101813Z 17012KT 19/05 A2973 RMK A01 T01870045  RH  039%=      5-min Rain = 0
KTH1 101814Z 18011G16KT 19/05 A2973 RMK A01 T01900046  RH  039%=      5-min Rain = 0
KTH1 101815Z 18017KT 19/05 A2972 RMK A01 T01920045  RH  038%=      5-min Rain = 0
KTH1 101816Z 18015G20KT 19/04 A2972 RMK A01 T01920044  RH  038%=      5-min Rain = 0
KTH1 101817Z 18018KT 19/04 A2972 RMK A01 T01910044  RH  038%=      5-min Rain = 0
KTH1 101818Z 16017G25KT 19/04 A2972 RMK A01 T01900043  RH  038%=      5-min Rain = 0
KTH1 101819Z 18019G24KT 19/04 A2972 RMK A01 T01900044  RH  038%=      5-min Rain = 0
KTH1 101820Z 18021G27KT 19/04 A2972 RMK A01 T01890043  RH  038%=      5-min Rain = 0
KTH1 101821Z 18017G22KT 19/04 A2972 RMK A01 T01890043  RH  038%=      5-min Rain = 0
KTH1 101822Z 18022KT 19/04 A2971 RMK A01 T01880043  RH  038%=      5-min Rain = 0
KTH1 101823Z 17017G24KT 19/04 A2971 RMK A01 T01890043  RH  038%=      5-min Rain = 0
KTH1 101824Z 17013G19KT 19/04 A2971 RMK A01 T01890044  RH  038%=      5-min Rain = 0
KTH1 101825Z 17008G13KT 19/05 A2972 RMK A01 T01910047  RH  039%=      5-min Rain = 0
KTH1 101826Z 16010KT 19/05 A2972 RMK A01 T01940047  RH  038%=      5-min Rain = 0
KTH1 101827Z 16012KT 20/05 A2972 RMK A01 T01950047  RH  038%=      5-min Rain = 0
KTH1 101828Z 18014G19KT 20/05 A2972 RMK A01 T01950046  RH  037%=      5-min Rain = 0
KTH1 101829Z 18016G21KT 20/05 A2971 RMK A01 T01950046  RH  037%=      5-min Rain = 0
KTH1 101830Z 19016G21KT 19/05 A2971 RMK A01 T01940045  RH  037%=      5-min Rain = 0
KTH1 101831Z 18017KT 19/05 A2971 RMK A01 T01940045  RH  037%=      5-min Rain = 0
KTH1 101832Z 19015KT 19/05 A2971 RMK A01 T01940045  RH  037%=      5-min Rain = 0
KTH1 101833Z 18013G18KT 20/05 A2971 RMK A01 T01950045  RH  037%=      5-min Rain = 0
KTH1 101834Z 18013KT 20/05 A2971 RMK A01 T01960047  RH  037%=      5-min Rain = 0
KTH1 101835Z 17015KT 20/05 A2971 RMK A01 T01980047  RH  037%=      5-min Rain = 0
KTH1 101836Z 19012KT 20/05 A2971 RMK A01 T01990047  RH  037%=      5-min Rain = 0
KTH1 101837Z 18014KT 20/05 A2971 RMK A01 T02000048  RH  037%=      5-min Rain = 0
KTH1 101838Z 20015KT 20/05 A297 RMK A01 T02010046  RH  036%=      5-min Rain = 0
KTH1 101839Z 20016G22KT 20/05 A297 RMK A01 T01990045  RH  036%=      5-min Rain = 0
KTH1 101840Z 17010G16KT 20/05 A297 RMK A01 T01980046  RH  037%=      5-min Rain = 0
KTH1 101841Z 16013G18KT 20/05 A297 RMK A01 T01980047  RH  037%=      5-min Rain = 0
KTH1 101842Z 16012G17KT 20/05 A297 RMK A01 T02000048  RH  037%=      5-min Rain = 0
KTH1 101843Z 17012G17KT 20/05 A297 RMK A01 T02000048  RH  037%=      5-min Rain = 0
KTH1 101844Z 17013G18KT 20/05 A297 RMK A01 T02010048  RH  037%=      5-min Rain = 0
KTH1 101845Z 17014G20KT 20/05 A297 RMK A01 T02010048  RH  036%=      5-min Rain = 0
KTH1 101846Z 17013G20KT 20/05 A297 RMK A01 T02000047  RH  037%=      5-min Rain = 0
KTH1 101847Z 17013G18KT 20/05 A297 RMK A01 T01990047  RH  037%=      5-min Rain = 0
KTH1 101848Z 17009G16KT 20/05 A297 RMK A01 T01990048  RH  037%=      5-min Rain = 0
KTH1 101849Z 18012G18KT 20/05 A297 RMK A01 T02000049  RH  037%=      5-min Rain = 0
KTH1 101850Z 17011G17KT 20/05 A297 RMK A01 T02020049  RH  037%=      5-min Rain = 0
KTH1 101851Z 17013G20KT 20/05 A297 RMK A01 T02040049  RH  036%=      5-min Rain = 0
KTH1 101852Z 16015G21KT 20/05 A297 RMK A01 T02040048  RH  036%=      5-min Rain = 0
KTH1 101853Z 17017G22KT 20/05 A297 RMK A01 T02020048  RH  036%=      5-min Rain = 0
KTH1 101854Z 17013G20KT 20/05 A297 RMK A01 T02000047  RH  037%=      5-min Rain = 0
KTH1 101855Z 18016G21KT 20/05 A297 RMK A01 T02000048  RH  037%=      5-min Rain = 0
KTH1 101856Z 18018KT 20/05 A297 RMK A01 T01990048  RH  037%=      5-min Rain = 0
KTH1 101857Z 18015G20KT 20/05 A297 RMK A01 T01980047  RH  037%=      5-min Rain = 0
KTH1 101858Z 17017KT 20/05 A297 RMK A01 T01980048  RH  037%=      5-min Rain = 0
KTH1 101859Z 18014KT 20/05 A2969 RMK A01 T01980048  RH  037%=      5-min Rain = 0
KTH1 101900Z 17011KT 20/05 A2969 RMK A01 T01970048  RH  037%=      5-min Rain = 0
KTH1 101901Z 17013G18KT 20/05 A2969 RMK A01 T01990049  RH  037%=      5-min Rain = 0
KTH1 101902Z 17013G18KT 20/05 A2969 RMK A01 T01990048  RH  037%=      5-min Rain = 0
KTH1 101903Z 17012G17KT 20/05 A2969 RMK A01 T01990049  RH  037%=      5-min Rain = 0
KTH1 101904Z 17012KT 20/05 A2969 RMK A01 T02010050  RH  037%=      5-min Rain = 0
KTH1 101905Z 17016KT 20/05 A2969 RMK A01 T02030049  RH  037%=      5-min Rain = 0
KTH1 101906Z 17017KT 20/05 A2969 RMK A01 T02020047  RH  036%=      5-min Rain = 0
KTH1 101907Z 16016KT 20/05 A2969 RMK A01 T01990047  RH  037%=      5-min Rain = 0
KTH1 101908Z 16014KT 20/05 A2969 RMK A01 T01980048  RH  037%=      5-min Rain = 0
KTH1 101909Z 16016KT 20/05 A2968 RMK A01 T01990048  RH  037%=      5-min Rain = 0
KTH1 101910Z 17015KT 20/05 A2968 RMK A01 T02000049  RH  037%=      5-min Rain = 0
KTH1 101911Z 17012G17KT 20/05 A2968 RMK A01 T02000049  RH  037%=      5-min Rain = 0
KTH1 101912Z 16014KT 20/05 A2968 RMK A01 T02010050  RH  037%=      5-min Rain = 0
KTH1 101913Z 17017KT 20/05 A2968 RMK A01 T02020049  RH  037%=      5-min Rain = 0
KTH1 101914Z 16016KT 20/05 A2968 RMK A01 T02010049  RH  037%=      5-min Rain = 0
KTH1 101915Z 16014KT 20/05 A2968 RMK A01 T02000049  RH  037%=      5-min Rain = 0
KTH1 101916Z 17015G22KT 20/05 A2968 RMK A01 T02010049  RH  037%=      5-min Rain = 0
KTH1 101917Z 18013KT 20/05 A2967 RMK A01 T02000049  RH  037%=      5-min Rain = 0
KTH1 101918Z 17013G22KT 20/05 A2967 RMK A01 T02020051  RH  037%=      5-min Rain = 0
KTH1 101919Z 17015KT 21/05 A2967 RMK A01 T02050050  RH  036%=      5-min Rain = 0
KTH1 101920Z 17012G17KT 21/05 A2967 RMK A01 T02060050  RH  036%=      5-min Rain = 0
KTH1 101921Z 17014G19KT 21/05 A2967 RMK A01 T02070050  RH  036%=      5-min Rain = 0
KTH1 101922Z 17013G21KT 21/05 A2967 RMK A01 T02080051  RH  036%=      5-min Rain = 0
KTH1 101923Z 19013KT 21/05 A2967 RMK A01 T02100051  RH  035%=      5-min Rain = 0
KTH1 101924Z 17015KT 21/05 A2967 RMK A01 T02100049  RH  035%=      5-min Rain = 0
KTH1 101925Z 17017G22KT 21/05 A2967 RMK A01 T02090049  RH  035%=      5-min Rain = 0
KTH1 101926Z 17014KT 21/05 A2966 RMK A01 T02050047  RH  035%=      5-min Rain = 0
KTH1 101927Z 16015G20KT 20/05 A2966 RMK A01 T02020048  RH  036%=      5-min Rain = 0
KTH1 101928Z 18015KT 20/05 A2966 RMK A01 T02010049  RH  037%=      5-min Rain = 0
KTH1 101929Z 17011G16KT 20/05 A2966 RMK A01 T02000048  RH  037%=      5-min Rain = 0
KTH1 101930Z 17013KT 20/05 A2966 RMK A01 T02000049  RH  037%=      5-min Rain = 0
KTH1 101931Z 17013KT 20/05 A2966 RMK A01 T02010049  RH  037%=      5-min Rain = 0
KTH1 101932Z 16012G19KT 20/05 A2966 RMK A01 T02000049  RH  037%=      5-min Rain = 0
KTH1 101933Z 16016G21KT 20/05 A2966 RMK A01 T02000049  RH  037%=      5-min Rain = 0
KTH1 101934Z 16012G17KT 20/05 A2966 RMK A01 T02000049  RH  037%=      5-min Rain = 0
KTH1 101935Z 17013G18KT 20/05 A2966 RMK A01 T02010049  RH  037%=      5-min Rain = 0
KTH1 101936Z 17016G22KT 20/05 A2966 RMK A01 T02020049  RH  037%=      5-min Rain = 0
KTH1 101937Z 17016KT 20/05 A2966 RMK A01 T02020049  RH  036%=      5-min Rain = 0
KTH1 101938Z 17014G19KT 20/05 A2966 RMK A01 T02010049  RH  037%=      5-min Rain = 0
KTH1 101939Z 17014KT 20/05 A2965 RMK A01 T02010049  RH  037%=      5-min Rain = 0
KTH1 101940Z 17013KT 20/05 A2965 RMK A01 T02010049  RH  037%=      5-min Rain = 0
KTH1 101941Z 17013KT 20/05 A2965 RMK A01 T02010049  RH  037%=      5-min Rain = 0
KTH1 101942Z 16016KT 20/05 A2965 RMK A01 T02010049  RH  037%=      5-min Rain = 0
KTH1 101943Z 16016G21KT 20/05 A2965 RMK A01 T02010049  RH  037%=      5-min Rain = 0
KTH1 101944Z 18016G21KT 20/05 A2965 RMK A01 T02000048  RH  037%=      5-min Rain = 0
KTH1 101945Z 16013KT 20/05 A2965 RMK A01 T02000050  RH  037%=      5-min Rain = 0
KTH1 101946Z 15018KT 20/05 A2965 RMK A01 T02020051  RH  037%=      5-min Rain = 0
KTH1 101947Z 15015G20KT 20/05 A2965 RMK A01 T02030050  RH  037%=      5-min Rain = 0
KTH1 101948Z 16014KT 20/05 A2965 RMK A01 T02030050  RH  037%=      5-min Rain = 0
KTH1 101949Z 16017KT 20/05 A2965 RMK A01 T02030050  RH  037%=      5-min Rain = 0
KTH1 101950Z 16013G18KT 20/05 A2965 RMK A01 T02030050  RH  037%=      5-min Rain = 0
KTH1 101951Z 15017KT 20/05 A2965 RMK A01 T02030051  RH  037%=      5-min Rain = 0
KTH1 101952Z 17014G19KT 20/05 A2965 RMK A01 T02030050  RH  037%=      5-min Rain = 0
KTH1 101953Z 18013G19KT 20/05 A2965 RMK A01 T02040050  RH  037%=      5-min Rain = 0
KTH1 101954Z 17012G19KT 20/05 A2964 RMK A01 T02040050  RH  036%=      5-min Rain = 0
KTH1 101955Z 16010KT 21/05 A2964 RMK A01 T02050051  RH  037%=      5-min Rain = 0
KTH1 101956Z 16012KT 21/05 A2964 RMK A01 T02060052  RH  036%=      5-min Rain = 0
KTH1 101957Z 15012KT 21/05 A2964 RMK A01 T02070051  RH  036%=      5-min Rain = 0
KTH1 101958Z 17014G19KT 21/05 A2964 RMK A01 T02080052  RH  036%=      5-min Rain = 0
KTH1 101959Z 17015G21KT 21/05 A2964 RMK A01 T02080051  RH  036%=      5-min Rain = 0
KTH1 102000Z 17014KT 21/05 A2964 RMK A01 T02070050  RH  036%=      5-min Rain = 0
KTH1 102001Z 18013KT 21/05 A2964 RMK A01 T02060050  RH  036%=      5-min Rain = 0
KTH1 102002Z 18013G18KT 21/05 A2963 RMK A01 T02060051  RH  036%=      5-min Rain = 0
KTH1 102003Z 17011G16KT 21/05 A2964 RMK A01 T02050050  RH  036%=      5-min Rain = 0
KTH1 102004Z 15012G17KT 21/05 A2964 RMK A01 T02050052  RH  036%=      5-min Rain = 0
KTH1 102005Z 16014KT 21/05 A2964 RMK A01 T02060051  RH  036%=      5-min Rain = 0
KTH1 102006Z 15018G23KT 21/05 A2963 RMK A01 T02070052  RH  036%=      5-min Rain = 0
KTH1 102007Z 17017KT 21/05 A2964 RMK A01 T02060051  RH  036%=      5-min Rain = 0
KTH1 102008Z 17012G20KT 21/05 A2964 RMK A01 T02050051  RH  036%=      5-min Rain = 0
KTH1 102009Z 18017KT 21/05 A2964 RMK A01 T02050051  RH  036%=      5-min Rain = 0
KTH1 102010Z 16014G19KT 21/05 A2964 RMK A01 T02050051  RH  036%=      5-min Rain = 0
KTH1 102011Z 18014KT 21/05 A2964 RMK A01 T02050051  RH  037%=      5-min Rain = 0
KTH1 102012Z 18013KT 21/05 A2964 RMK A01 T02050051  RH  036%=      5-min Rain = 0
KTH1 102013Z 18016G21KT 21/05 A2964 RMK A01 T02070052  RH  036%=      5-min Rain = 0
KTH1 102014Z 16015KT 21/05 A2964 RMK A01 T02070051  RH  036%=      5-min Rain = 0
KTH1 102015Z 15015KT 21/05 A2963 RMK A01 T02070052  RH  036%=      5-min Rain = 0
KTH1 102016Z 16012KT 21/05 A2963 RMK A01 T02060051  RH  036%=      5-min Rain = 0
KTH1 102017Z 16010KT 21/05 A2963 RMK A01 T02080053  RH  036%=      5-min Rain = 0
KTH1 102018Z 16013G18KT 21/05 A2963 RMK A01 T02100054  RH  036%=      5-min Rain = 0
KTH1 102019Z 16014KT 21/05 A2963 RMK A01 T02110052  RH  035%=      5-min Rain = 0
KTH1 102020Z 17014G20KT 21/05 A2963 RMK A01 T02100053  RH  036%=      5-min Rain = 0
KTH1 102021Z 18014KT 21/05 A2963 RMK A01 T02100053  RH  036%=      5-min Rain = 0
KTH1 102022Z 17012G17KT 21/05 A2963 RMK A01 T02100052  RH  036%=      5-min Rain = 0
KTH1 102023Z 17014KT 21/05 A2963 RMK A01 T02110052  RH  035%=      5-min Rain = 0
KTH1 102024Z 15013KT 21/05 A2963 RMK A01 T02090052  RH  036%=      5-min Rain = 0
KTH1 102025Z 16018KT 21/05 A2963 RMK A01 T02090052  RH  036%=      5-min Rain = 0
KTH1 102026Z 16017G22KT 21/05 A2963 RMK A01 T02080052  RH  036%=      5-min Rain = 0
KTH1 102027Z 16018G23KT 21/05 A2963 RMK A01 T02080053  RH  036%=      5-min Rain = 0
KTH1 102028Z 16016KT 21/05 A2963 RMK A01 T02070052  RH  036%=      5-min Rain = 0
KTH1 102029Z 16018G24KT 21/05 A2963 RMK A01 T02070052  RH  036%=      5-min Rain = 0
KTH1 102030Z 16015KT 21/05 A2962 RMK A01 T02060052  RH  036%=      5-min Rain = 0
KTH1 102031Z 17013KT 21/05 A2962 RMK A01 T02050052  RH  037%=      5-min Rain = 0
KTH1 102032Z 17010KT 21/05 A2962 RMK A01 T02060052  RH  037%=      5-min Rain = 0
KTH1 102033Z 16012G18KT 21/05 A2962 RMK A01 T02080053  RH  036%=      5-min Rain = 0
KTH1 102034Z 17012KT 21/05 A2962 RMK A01 T02090053  RH  036%=      5-min Rain = 0
KTH1 102035Z 16011G16KT 21/05 A2962 RMK A01 T02100054  RH  036%=      5-min Rain = 0
KTH1 102036Z 17014KT 21/05 A2962 RMK A01 T02110053  RH  036%=      5-min Rain = 0
KTH1 102037Z 18010KT 21/05 A2962 RMK A01 T02120053  RH  036%=      5-min Rain = 0
KTH1 102038Z 17014KT 21/05 A2962 RMK A01 T02120053  RH  035%=      5-min Rain = 0
KTH1 102039Z 18012G17KT 21/05 A2962 RMK A01 T02120053  RH  035%=      5-min Rain = 0
KTH1 102040Z 17011KT 21/05 A2962 RMK A01 T02110053  RH  036%=      5-min Rain = 0
KTH1 102041Z 17011G16KT 21/05 A2962 RMK A01 T02100053  RH  036%=      5-min Rain = 0
KTH1 102042Z 16014KT 21/05 A2962 RMK A01 T02100053  RH  036%=      5-min Rain = 0
KTH1 102043Z 16014KT 21/05 A2962 RMK A01 T02100053  RH  036%=      5-min Rain = 0
KTH1 102044Z 16011G18KT 21/05 A2962 RMK A01 T02090053  RH  036%=      5-min Rain = 0
KTH1 102045Z 16013KT 21/06 A2962 RMK A01 T02100055  RH  036%=      5-min Rain = 0
KTH1 102046Z 18012G21KT 21/05 A2961 RMK A01 T02110054  RH  036%=      5-min Rain = 0
KTH1 102047Z 18016KT 21/05 A2961 RMK A01 T02120053  RH  035%=      5-min Rain = 0
KTH1 102048Z 18011KT 21/05 A2961 RMK A01 T02120054  RH  036%=      5-min Rain = 0
KTH1 102049Z 17015KT 21/05 A2961 RMK A01 T02120054  RH  036%=      5-min Rain = 0
KTH1 102050Z 16013G20KT 21/05 A2961 RMK A01 T02120053  RH  035%=      5-min Rain = 0
KTH1 102051Z 18013G18KT 21/05 A2961 RMK A01 T02110054  RH  036%=      5-min Rain = 0
KTH1 102052Z 17015G21KT 21/05 A2961 RMK A01 T02100054  RH  036%=      5-min Rain = 0
KTH1 102053Z 17015G20KT 21/05 A2961 RMK A01 T02100053  RH  036%=      5-min Rain = 0
KTH1 102054Z 17015KT 21/05 A2961 RMK A01 T02090053  RH  036%=      5-min Rain = 0
KTH1 102055Z 17012G17KT 21/05 A2961 RMK A01 T02080053  RH  036%=      5-min Rain = 0
KTH1 102056Z 17011G17KT 21/05 A2961 RMK A01 T02080054  RH  036%=      5-min Rain = 0
KTH1 102057Z 17012G19KT 21/05 A2961 RMK A01 T02100054  RH  036%=      5-min Rain = 0
KTH1 102058Z 17013G21KT 21/05 A2961 RMK A01 T02110053  RH  036%=      5-min Rain = 0
KTH1 102059Z 17014G20KT 21/05 A2961 RMK A01 T02100054  RH  036%=      5-min Rain = 0
KTH1 102100Z 15017KT 21/05 A2961 RMK A01 T02100054  RH  036%=      5-min Rain = 0
KTH1 102101Z 16018G23KT 21/05 A2961 RMK A01 T02090053  RH  036%=      5-min Rain = 0
KTH1 102102Z 15015G20KT 21/05 A2961 RMK A01 T02080053  RH  036%=      5-min Rain = 0
KTH1 102103Z 17014G20KT 21/05 A2961 RMK A01 T02070053  RH  036%=      5-min Rain = 0
KTH1 102104Z 17015KT 21/05 A296 RMK A01 T02070053  RH  037%=      5-min Rain = 0
KTH1 102105Z 17013KT 21/05 A2961 RMK A01 T02070053  RH  036%=      5-min Rain = 0
KTH1 102106Z 17012KT 21/05 A296 RMK A01 T02080054  RH  037%=      5-min Rain = 0
KTH1 102107Z 16010KT 21/05 A296 RMK A01 T02090054  RH  036%=      5-min Rain = 0
KTH1 102108Z 17011G16KT 21/05 A296 RMK A01 T02090054  RH  036%=      5-min Rain = 0
KTH1 102109Z 17012KT 21/05 A296 RMK A01 T02100054  RH  036%=      5-min Rain = 0
KTH1 102110Z 16017KT 21/05 A296 RMK A01 T02110054  RH  036%=      5-min Rain = 0
KTH1 102111Z 16018G23KT 21/05 A296 RMK A01 T02100053  RH  036%=      5-min Rain = 0
KTH1 102112Z 17012G18KT 21/05 A296 RMK A01 T02080053  RH  036%=      5-min Rain = 0
KTH1 102113Z 16010KT 21/05 A296 RMK A01 T02070054  RH  037%=      5-min Rain = 0
KTH1 102114Z 16015KT 21/05 A296 RMK A01 T02080054  RH  036%=      5-min Rain = 0
KTH1 102115Z 15014KT 21/05 A296 RMK A01 T02080053  RH  036%=      5-min Rain = 0
KTH1 102116Z 15016G23KT 21/05 A2959 RMK A01 T02080054  RH  036%=      5-min Rain = 0
KTH1 102117Z 15018KT 21/05 A2959 RMK A01 T02080053  RH  036%=      5-min Rain = 0
KTH1 102118Z 15016KT 21/05 A2959 RMK A01 T02070053  RH  037%=      5-min Rain = 0
KTH1 102119Z 14013G20KT 21/05 A2958 RMK A01 T02070053  RH  037%=      5-min Rain = 0
KTH1 102120Z 14019G24KT 21/05 A2958 RMK A01 T02070054  RH  037%=      5-min Rain = 0
KTH1 102121Z 14014G20KT 21/05 A2958 RMK A01 T02070054  RH  037%=      5-min Rain = 0
KTH1 102122Z 15017G23KT 21/06 A2958 RMK A01 T02080055  RH  037%=      5-min Rain = 0
KTH1 102123Z 15020KT 21/05 A2958 RMK A01 T02080054  RH  036%=      5-min Rain = 0
KTH1 102124Z 15015KT 21/05 A2958 RMK A01 T02070054  RH  037%=      5-min Rain = 0
KTH1 102125Z 15016KT 21/05 A2958 RMK A01 T02070054  RH  037%=      5-min Rain = 0
KTH1 102126Z 16014KT 21/06 A2958 RMK A01 T02080055  RH  037%=      5-min Rain = 0
KTH1 102127Z 15017KT 21/06 A2958 RMK A01 T02090055  RH  037%=      5-min Rain = 0
KTH1 102128Z 16016G23KT 21/06 A2958 RMK A01 T02090055  RH  036%=      5-min Rain = 0
KTH1 102129Z 16017KT 21/06 A2958 RMK A01 T02090055  RH  036%=      5-min Rain = 0
KTH1 102130Z 16015KT 21/06 A2958 RMK A01 T02090055  RH  037%=      5-min Rain = 0
KTH1 102131Z 15012KT 21/06 A2958 RMK A01 T02090055  RH  037%=      5-min Rain = 0
KTH1 102132Z 16013KT 21/06 A2958 RMK A01 T02100056  RH  037%=      5-min Rain = 0
KTH1 102133Z 15018G24KT 21/06 A2958 RMK A01 T02110056  RH  036%=      5-min Rain = 0
KTH1 102134Z 16016KT 21/06 A2958 RMK A01 T02120056  RH  036%=      5-min Rain = 0
KTH1 102135Z 15016G21KT 21/06 A2958 RMK A01 T02120056  RH  036%=      5-min Rain = 0
KTH1 102136Z 15018KT 21/06 A2958 RMK A01 T02110055  RH  036%=      5-min Rain = 0
KTH1 102137Z 16016G21KT 21/06 A2958 RMK A01 T02110056  RH  036%=      5-min Rain = 0
KTH1 102138Z 16015G20KT 21/06 A2958 RMK A01 T02110056  RH  036%=      5-min Rain = 0
KTH1 102139Z 15016KT 21/06 A2958 RMK A01 T02110056  RH  036%=      5-min Rain = 0
KTH1 102140Z 16013KT 21/06 A2958 RMK A01 T02110056  RH  036%=      5-min Rain = 0
KTH1 102141Z 16013KT 21/06 A2959 RMK A01 T02120056  RH  036%=      5-min Rain = 0
KTH1 102142Z 16018G23KT 21/06 A2959 RMK A01 T02130056  RH  036%=      5-min Rain = 0
KTH1 102143Z 16012G20KT 21/06 A2959 RMK A01 T02130056  RH  036%=      5-min Rain = 0
KTH1 102144Z 17013G19KT 21/06 A2959 RMK A01 T02130056  RH  036%=      5-min Rain = 0
KTH1 102145Z 17012G17KT 21/06 A2959 RMK A01 T02140056  RH  036%=      5-min Rain = 0
KTH1 102146Z 16013G21KT 21/06 A2959 RMK A01 T02140056  RH  036%=      5-min Rain = 0
KTH1 102147Z 16017G22KT 21/06 A2959 RMK A01 T02140056  RH  036%=      5-min Rain = 0
KTH1 102148Z 16015KT 21/06 A2959 RMK A01 T02130055  RH  036%=      5-min Rain = 0
KTH1 102149Z 15014KT 21/06 A2959 RMK A01 T02110056  RH  036%=      5-min Rain = 0
KTH1 102150Z 15014KT 21/06 A2959 RMK A01 T02110056  RH  036%=      5-min Rain = 0
KTH1 102151Z 16013KT 21/06 A2959 RMK A01 T02120056  RH  036%=      5-min Rain = 0
KTH1 102152Z 16013G19KT 21/06 A2959 RMK A01 T02120056  RH  036%=      5-min Rain = 0
KTH1 102153Z 15011KT 21/06 A2959 RMK A01 T02120056  RH  036%=      5-min Rain = 0
KTH1 102154Z 15011G16KT 21/06 A2959 RMK A01 T02120056  RH  036%=      5-min Rain = 0
KTH1 102155Z 15012KT 21/06 A2959 RMK A01 T02120056  RH  036%=      5-min Rain = 0
KTH1 102156Z 15012G18KT 21/06 A2959 RMK A01 T02120056  RH  036%=      5-min Rain = 0
KTH1 102157Z 15011G16KT 21/06 A2959 RMK A01 T02110056  RH  036%=      5-min Rain = 0
KTH1 102158Z 14010G15KT 21/06 A2959 RMK A01 T02110057  RH  037%=      5-min Rain = 0
KTH1 102159Z 15011G16KT 21/06 A2959 RMK A01 T02120057  RH  036%=      5-min Rain = 0
KTH1 102200Z 14014KT 21/06 A2959 RMK A01 T02120056  RH  036%=      5-min Rain = 0
KTH1 102201Z 15013KT 21/06 A296 RMK A01 T02110056  RH  036%=      5-min Rain = 0
KTH1 102202Z 15013KT 21/06 A296 RMK A01 T02100057  RH  037%=      5-min Rain = 0
KTH1 102203Z 15014G19KT 21/06 A296 RMK A01 T02100056  RH  037%=      5-min Rain = 0
KTH1 102204Z 15012KT 21/06 A296 RMK A01 T02090056  RH  037%=      5-min Rain = 0
KTH1 102205Z 15013KT 21/06 A296 RMK A01 T02090056  RH  037%=      5-min Rain = 0
KTH1 102206Z 15012KT 21/06 A296 RMK A01 T02090056  RH  037%=      5-min Rain = 0
KTH1 102207Z 15010KT 21/06 A296 RMK A01 T02080056  RH  037%=      5-min Rain = 0
KTH1 102208Z 15014KT 21/06 A296 RMK A01 T02080056  RH  037%=      5-min Rain = 0
KTH1 102209Z 15012KT 21/06 A296 RMK A01 T02070056  RH  037%=      5-min Rain = 0
KTH1 102210Z 14011KT 21/06 A296 RMK A01 T02070057  RH  037%=      5-min Rain = 0
KTH1 102211Z 14011KT 21/06 A296 RMK A01 T02080057  RH  037%=      5-min Rain = 0
KTH1 102212Z 15010G17KT 21/06 A296 RMK A01 T02080057  RH  037%=      5-min Rain = 0
KTH1 102213Z 15011KT 21/06 A296 RMK A01 T02090057  RH  037%=      5-min Rain = 0
KTH1 102214Z 15011KT 21/06 A2959 RMK A01 T02090057  RH  037%=      5-min Rain = 0
KTH1 102215Z 15010KT 21/06 A2959 RMK A01 T02090058  RH  037%=      5-min Rain = 0
KTH1 102216Z 16011KT 21/06 A2959 RMK A01 T02100058  RH  037%=      5-min Rain = 0
KTH1 102217Z 15012KT 21/06 A2959 RMK A01 T02100057  RH  037%=      5-min Rain = 0
KTH1 102218Z 15011KT 21/06 A2959 RMK A01 T02100057  RH  037%=      5-min Rain = 0
KTH1 102219Z 15013KT 21/06 A2959 RMK A01 T02110058  RH  037%=      5-min Rain = 0
KTH1 102220Z 16011KT 21/06 A2959 RMK A01 T02110057  RH  037%=      5-min Rain = 0
KTH1 102221Z 16015KT 21/06 A2959 RMK A01 T02110057  RH  037%=      5-min Rain = 0
KTH1 102222Z 17014KT 21/06 A2959 RMK A01 T02120057  RH  037%=      5-min Rain = 0
KTH1 102223Z 16014KT 21/06 A2959 RMK A01 T02110057  RH  036%=      5-min Rain = 0
KTH1 102224Z 16015KT 21/06 A2959 RMK A01 T02110057  RH  036%=      5-min Rain = 0
KTH1 102225Z 16014G19KT 21/06 A2959 RMK A01 T02110057  RH  037%=      5-min Rain = 0
KTH1 102226Z 16013G18KT 21/06 A2959 RMK A01 T02110057  RH  037%=      5-min Rain = 0
KTH1 102227Z 17014KT 21/06 A2959 RMK A01 T02110057  RH  037%=      5-min Rain = 0
KTH1 102228Z 16013KT 21/06 A2959 RMK A01 T02110057  RH  037%=      5-min Rain = 0
KTH1 102229Z 16013KT 21/06 A2959 RMK A01 T02100057  RH  037%=      5-min Rain = 0
KTH1 102230Z 16014KT 21/06 A2959 RMK A01 T02100058  RH  037%=      5-min Rain = 0
KTH1 102231Z 17015G20KT 21/06 A2959 RMK A01 T02100057  RH  037%=      5-min Rain = 0
KTH1 102232Z 17010G18KT 21/06 A2959 RMK A01 T02090058  RH  037%=      5-min Rain = 0
KTH1 102233Z 17009KT 21/06 A2959 RMK A01 T02090058  RH  037%=      5-min Rain = 0
KTH1 102234Z 16011G16KT 21/06 A2959 RMK A01 T02090058  RH  037%=      5-min Rain = 0
KTH1 102235Z 17014KT 21/06 A2959 RMK A01 T02090058  RH  037%=      5-min Rain = 0
KTH1 102236Z 17012G17KT 21/06 A2959 RMK A01 T02090058  RH  037%=      5-min Rain = 0
KTH1 102237Z 16016KT 21/06 A2959 RMK A01 T02080058  RH  037%=      5-min Rain = 0
KTH1 102238Z 16014KT 21/06 A2959 RMK A01 T02080058  RH  037%=      5-min Rain = 0
KTH1 102239Z 16015KT 21/06 A2959 RMK A01 T02070058  RH  038%=      5-min Rain = 0
KTH1 102240Z 16013KT 21/06 A2959 RMK A01 T02070058  RH  038%=      5-min Rain = 0
KTH1 102241Z 16013G18KT 21/06 A2959 RMK A01 T02070058  RH  038%=      5-min Rain = 0
KTH1 102242Z 16014KT 21/06 A2959 RMK A01 T02060058  RH  038%=      5-min Rain = 0
KTH1 102243Z 16016KT 21/06 A2959 RMK A01 T02050058  RH  038%=      5-min Rain = 0
KTH1 102244Z 16014G19KT 21/06 A2959 RMK A01 T02050058  RH  038%=      5-min Rain = 0
KTH1 102245Z 16014KT 20/06 A2959 RMK A01 T02040058  RH  038%=      5-min Rain = 0
KTH1 102246Z 16015G21KT 20/06 A2959 RMK A01 T02040058  RH  038%=      5-min Rain = 0
KTH1 102247Z 16013G20KT 20/06 A2959 RMK A01 T02030058  RH  039%=      5-min Rain = 0
KTH1 102248Z 16012KT 20/06 A2959 RMK A01 T02030058  RH  039%=      5-min Rain = 0
KTH1 102249Z 15014G20KT 20/06 A2959 RMK A01 T02030058  RH  039%=      5-min Rain = 0
KTH1 102250Z 15013G18KT 20/06 A2959 RMK A01 T02020059  RH  039%=      5-min Rain = 0
KTH1 102251Z 15013KT 20/06 A2959 RMK A01 T02020059  RH  039%=      5-min Rain = 0
KTH1 102252Z 16015G20KT 20/06 A2959 RMK A01 T02020059  RH  039%=      5-min Rain = 0
KTH1 102253Z 16014KT 20/06 A2959 RMK A01 T02020059  RH  039%=      5-min Rain = 0
KTH1 102254Z 16018KT 20/06 A2959 RMK A01 T02010059  RH  039%=      5-min Rain = 0
KTH1 102255Z 15014G19KT 20/06 A2959 RMK A01 T02010059  RH  039%=      5-min Rain = 0
KTH1 102256Z 16010KT 20/06 A2959 RMK A01 T02010059  RH  040%=      5-min Rain = 0
KTH1 102257Z 16012KT 20/06 A2959 RMK A01 T02010059  RH  040%=      5-min Rain = 0
KTH1 102258Z 17016KT 20/06 A2959 RMK A01 T02000059  RH  040%=      5-min Rain = 0
KTH1 102259Z 16015G20KT 20/06 A2959 RMK A01 T02000059  RH  040%=      5-min Rain = 0
KTH1 102300Z 15012G17KT 20/06 A2959 RMK A01 T02010059  RH  040%=      5-min Rain = 0
KTH1 102301Z 16016KT 20/06 A2958 RMK A01 T02000060  RH  040%=      5-min Rain = 0
KTH1 102302Z 15012KT 20/06 A2958 RMK A01 T02000060  RH  040%=      5-min Rain = 0
KTH1 102303Z 16012KT 20/06 A2958 RMK A01 T02000060  RH  040%=      5-min Rain = 0
KTH1 102304Z 15013KT 20/06 A2958 RMK A01 T02000060  RH  040%=      5-min Rain = 0
KTH1 102305Z 15014G19KT 20/06 A2958 RMK A01 T01990060  RH  040%=      5-min Rain = 0
KTH1 102306Z 15016KT 20/06 A2958 RMK A01 T01990060  RH  040%=      5-min Rain = 0
KTH1 102307Z 15014KT 20/06 A2958 RMK A01 T01970059  RH  040%=      5-min Rain = 0
KTH1 102308Z 14011KT 20/06 A2958 RMK A01 T01960059  RH  041%=      5-min Rain = 0
KTH1 102309Z 14010G17KT 20/06 A2958 RMK A01 T01960060  RH  041%=      5-min Rain = 0
KTH1 102310Z 15014KT 20/06 A2959 RMK A01 T01950060  RH  041%=      5-min Rain = 0
KTH1 102311Z 15016KT 19/06 A2959 RMK A01 T01940060  RH  041%=      5-min Rain = 0
KTH1 102312Z 15014KT 19/06 A2959 RMK A01 T01930060  RH  042%=      5-min Rain = 0
KTH1 102313Z 15014KT 19/06 A2959 RMK A01 T01920060  RH  042%=      5-min Rain = 0
KTH1 102314Z 15014KT 19/06 A2959 RMK A01 T01920060  RH  042%=      5-min Rain = 0
KTH1 102315Z 15010KT 19/06 A2959 RMK A01 T01910060  RH  042%=      5-min Rain = 0
KTH1 102316Z 15013KT 19/06 A2959 RMK A01 T01910060  RH  042%=      5-min Rain = 0
KTH1 102317Z 15014KT 19/06 A2959 RMK A01 T01900060  RH  043%=      5-min Rain = 0
KTH1 102318Z 15014KT 19/06 A2959 RMK A01 T01900061  RH  043%=      5-min Rain = 0
KTH1 102319Z 15015G21KT 19/06 A2959 RMK A01 T01890061  RH  043%=      5-min Rain = 0
KTH1 102320Z 15014KT 19/06 A2959 RMK A01 T01890061  RH  043%=      5-min Rain = 0
KTH1 102321Z 15011KT 19/06 A2959 RMK A01 T01890061  RH  043%=      5-min Rain = 0
KTH1 102322Z 14009KT 19/06 A2959 RMK A01 T01880061  RH  043%=      5-min Rain = 0
KTH1 102323Z 15011KT 19/06 A2959 RMK A01 T01870061  RH  044%=      5-min Rain = 0
KTH1 102324Z 14011KT 19/06 A2959 RMK A01 T01860061  RH  044%=      5-min Rain = 0
KTH1 102325Z 15012KT 19/06 A2959 RMK A01 T01850061  RH  044%=      5-min Rain = 0
KTH1 102326Z 14012KT 19/06 A2959 RMK A01 T01850061  RH  044%=      5-min Rain = 0
KTH1 102327Z 14012KT 18/06 A2959 RMK A01 T01840061  RH  045%=      5-min Rain = 0
KTH1 102328Z 14014KT 18/06 A2959 RMK A01 T01830062  RH  045%=      5-min Rain = 0
KTH1 102329Z 15012KT 18/06 A2959 RMK A01 T01830062  RH  045%=      5-min Rain = 0
KTH1 102330Z 15010KT 18/06 A2959 RMK A01 T01820062  RH  045%=      5-min Rain = 0
KTH1 102331Z 14010KT 18/06 A2959 RMK A01 T01810062  RH  045%=      5-min Rain = 0
KTH1 102332Z 14009KT 18/06 A2959 RMK A01 T01800062  RH  046%=      5-min Rain = 0
KTH1 102333Z 15011KT 18/06 A2959 RMK A01 T01790062  RH  046%=      5-min Rain = 0
KTH1 102334Z 15011KT 18/06 A2959 RMK A01 T01780062  RH  046%=      5-min Rain = 0
KTH1 102335Z 14010G15KT 18/06 A2959 RMK A01 T01780062  RH  047%=      5-min Rain = 0
KTH1 102336Z 15011KT 18/06 A2959 RMK A01 T01770062  RH  047%=      5-min Rain = 0
KTH1 102337Z 14012KT 18/06 A2959 RMK A01 T01770063  RH  047%=      5-min Rain = 0
KTH1 102338Z 14011KT 18/06 A2959 RMK A01 T01770063  RH  047%=      5-min Rain = 0
KTH1 102339Z 14011KT 18/06 A2959 RMK A01 T01760063  RH  047%=      5-min Rain = 0
KTH1 102340Z 14011KT 18/06 A2959 RMK A01 T01750063  RH  048%=      5-min Rain = 0
KTH1 102341Z 14010KT 17/06 A2959 RMK A01 T01740063  RH  048%=      5-min Rain = 0
KTH1 102342Z 14010KT 17/06 A2959 RMK A01 T01730063  RH  048%=      5-min Rain = 0
KTH1 102343Z 14010KT 17/06 A2959 RMK A01 T01730063  RH  048%=      5-min Rain = 0
KTH1 102344Z 14012G17KT 17/06 A2959 RMK A01 T01720063  RH  049%=      5-min Rain = 0
KTH1 102345Z 14010KT 17/06 A2959 RMK A01 T01710063  RH  049%=      5-min Rain = 0
KTH1 102346Z 14010KT 17/06 A2959 RMK A01 T01710063  RH  049%=      5-min Rain = 0
KTH1 102347Z 14010KT 17/06 A2959 RMK A01 T01710064  RH  049%=      5-min Rain = 0
KTH1 102348Z 14011KT 17/06 A2959 RMK A01 T01700063  RH  050%=      5-min Rain = 0
KTH1 102349Z 14011KT 17/06 A2959 RMK A01 T01690064  RH  050%=      5-min Rain = 0
KTH1 102350Z 14012KT 17/06 A2959 RMK A01 T01690064  RH  050%=      5-min Rain = 0
KTH1 102351Z 14012KT 17/06 A2959 RMK A01 T01680064  RH  050%=      5-min Rain = 0
KTH1 102352Z 14010KT 17/07 A2959 RMK A01 T01680065  RH  050%=      5-min Rain = 0
KTH1 102353Z 14011KT 17/06 A2959 RMK A01 T01680064  RH  050%=      5-min Rain = 0
KTH1 102354Z 14011KT 17/06 A2958 RMK A01 T01670064  RH  051%=      5-min Rain = 0
KTH1 102355Z 14010KT 17/07 A2958 RMK A01 T01660065  RH  051%=      5-min Rain = 0
KTH1 102356Z 14010KT 17/07 A2958 RMK A01 T01660065  RH  051%=      5-min Rain = 0
KTH1 102357Z 14012KT 17/07 A2958 RMK A01 T01650065  RH  051%=      5-min Rain = 0
KTH1 102358Z 14011KT 17/07 A2958 RMK A01 T01650065  RH  052%=      5-min Rain = 0
KTH1 102359Z 14012KT 17/07 A2958 RMK A01 T01650065  RH  052%=      5-min Rain = 0
KTH1 110000Z 14012KT 17/07 A2958 RMK A01 T01650066  RH  052%=      5-min Rain = 0
KTH1 110001Z 14013KT 16/07 A2958 RMK A01 T01640066  RH  052%=      5-min Rain = 0
KTH1 110002Z 14011G17KT 17/07 A2958 RMK A01 T01650066  RH  052%=      5-min Rain = 0
KTH1 110003Z 15013G18KT 17/07 A2958 RMK A01 T01650066  RH  052%=      5-min Rain = 0
KTH1 110004Z 15012KT 17/07 A2958 RMK A01 T01650066  RH  052%=      5-min Rain = 0
KTH1 110005Z 14011KT 17/07 A2959 RMK A01 T01650067  RH  052%=      5-min Rain = 0
KTH1 110006Z 14012KT 17/07 A2959 RMK A01 T01650067  RH  052%=      5-min Rain = 0
KTH1 110007Z 15013G19KT 16/07 A2958 RMK A01 T01640067  RH  052%=      5-min Rain = 0
KTH1 110008Z 14012KT 16/07 A2958 RMK A01 T01640067  RH  053%=      5-min Rain = 0
KTH1 110009Z 14012G18KT 16/07 A2958 RMK A01 T01640067  RH  053%=      5-min Rain = 0
KTH1 110010Z 15012KT 16/07 A2958 RMK A01 T01640067  RH  053%=      5-min Rain = 0
KTH1 110011Z 14012KT 16/07 A2958 RMK A01 T01640067  RH  053%=      5-min Rain = 0
KTH1 110012Z 14013KT 16/07 A2958 RMK A01 T01630068  RH  053%=      5-min Rain = 0
KTH1 110013Z 14012KT 16/07 A2958 RMK A01 T01630067  RH  053%=      5-min Rain = 0
KTH1 110014Z 14011G17KT 16/07 A2958 RMK A01 T01630067  RH  053%=      5-min Rain = 0
KTH1 110015Z 14012G17KT 16/07 A2958 RMK A01 T01630068  RH  053%=      5-min Rain = 0
KTH1 110016Z 14013G18KT 16/07 A2958 RMK A01 T01620068  RH  053%=      5-min Rain = 0
KTH1 110017Z 14011KT 16/07 A2958 RMK A01 T01620068  RH  054%=      5-min Rain = 0
KTH1 110018Z 15011KT 16/07 A2958 RMK A01 T01630068  RH  054%=      5-min Rain = 0
KTH1 110019Z 14013KT 16/07 A2958 RMK A01 T01620068  RH  054%=      5-min Rain = 0
KTH1 110020Z 15013KT 16/07 A2958 RMK A01 T01620069  RH  054%=      5-min Rain = 0
KTH1 110021Z 15013KT 16/07 A2958 RMK A01 T01620068  RH  054%=      5-min Rain = 0
KTH1 110022Z 14012KT 16/07 A2958 RMK A01 T01620069  RH  054%=      5-min Rain = 0
KTH1 110023Z 14012KT 16/07 A2958 RMK A01 T01620069  RH  054%=      5-min Rain = 0
KTH1 110024Z 14011KT 16/07 A2958 RMK A01 T01620069  RH  054%=      5-min Rain = 0
KTH1 110025Z 14011KT 16/07 A2958 RMK A01 T01610069  RH  054%=      5-min Rain = 0
KTH1 110026Z 14012G17KT 16/07 A2958 RMK A01 T01610069  RH  054%=      5-min Rain = 0
KTH1 110027Z 15013KT 16/07 A2958 RMK A01 T01610069  RH  055%=      5-min Rain = 0
KTH1 110028Z 15014KT 16/07 A2958 RMK A01 T01610069  RH  054%=      5-min Rain = 0
KTH1 110029Z 14012KT 16/07 A2958 RMK A01 T01620070  RH  054%=      5-min Rain = 0
KTH1 110030Z 14014KT 16/07 A2958 RMK A01 T01620070  RH  054%=      5-min Rain = 0
KTH1 110031Z 14014KT 16/07 A2958 RMK A01 T01620070  RH  054%=      5-min Rain = 0
KTH1 110032Z 14013KT 16/07 A2958 RMK A01 T01620070  RH  054%=      5-min Rain = 0
KTH1 110033Z 14012KT 16/07 A2958 RMK A01 T01620070  RH  054%=      5-min Rain = 0
KTH1 110034Z 14011KT 16/07 A2958 RMK A01 T01620070  RH  054%=      5-min Rain = 0
KTH1 110035Z 14012KT 16/07 A2958 RMK A01 T01610070  RH  055%=      5-min Rain = 0
KTH1 110036Z 15013KT 16/07 A2958 RMK A01 T01610070  RH  055%=      5-min Rain = 0
KTH1 110037Z 15013KT 16/07 A2958 RMK A01 T01600070  RH  055%=      5-min Rain = 0
KTH1 110038Z 15013KT 16/07 A2958 RMK A01 T01600070  RH  055%=      5-min Rain = 0
KTH1 110039Z 15012KT 16/07 A2958 RMK A01 T01600070  RH  055%=      5-min Rain = 0
KTH1 110040Z 15011KT 16/07 A2959 RMK A01 T01600070  RH  055%=      5-min Rain = 0
KTH1 110041Z 15012KT 16/07 A2959 RMK A01 T01600071  RH  055%=      5-min Rain = 0
KTH1 110042Z 15012KT 16/07 A2959 RMK A01 T01600070  RH  055%=      5-min Rain = 0
KTH1 110043Z 15011KT 16/07 A2959 RMK A01 T01600070  RH  055%=      5-min Rain = 0
KTH1 110044Z 15014KT 16/07 A2958 RMK A01 T01600071  RH  056%=      5-min Rain = 0
KTH1 110045Z 15012KT 16/07 A2958 RMK A01 T01590071  RH  056%=      5-min Rain = 0
KTH1 110046Z 15011KT 16/07 A2959 RMK A01 T01590071  RH  056%=      5-min Rain = 0
KTH1 110047Z 15012KT 16/07 A2958 RMK A01 T01580070  RH  056%=      5-min Rain = 0
KTH1 110048Z 15013G18KT 16/07 A2958 RMK A01 T01580071  RH  056%=      5-min Rain = 0
KTH1 110049Z 15013KT 16/07 A2958 RMK A01 T01580071  RH  056%=      5-min Rain = 0
KTH1 110050Z 15013KT 16/07 A2958 RMK A01 T01580071  RH  056%=      5-min Rain = 0
KTH1 110051Z 15014G19KT 16/07 A2958 RMK A01 T01580071  RH  056%=      5-min Rain = 0
KTH1 110052Z 15014G20KT 16/07 A2958 RMK A01 T01580071  RH  056%=      5-min Rain = 0
KTH1 110053Z 15012KT 16/07 A2959 RMK A01 T01580071  RH  056%=      5-min Rain = 0
KTH1 110054Z 15014KT 16/07 A2959 RMK A01 T01570071  RH  056%=      5-min Rain = 0
KTH1 110055Z 15014KT 16/07 A2959 RMK A01 T01570071  RH  057%=      5-min Rain = 0
KTH1 110056Z 15012KT 16/07 A2959 RMK A01 T01570071  RH  057%=      5-min Rain = 0
KTH1 110057Z 15011KT 16/07 A2959 RMK A01 T01570071  RH  057%=      5-min Rain = 0
KTH1 110058Z 15010G15KT 16/07 A2959 RMK A01 T01560071  RH  057%=      5-min Rain = 0
KTH1 110059Z 15011KT 16/07 A2959 RMK A01 T01560072  RH  057%=      5-min Rain = 0
KTH1 110100Z 16013KT 16/07 A2959 RMK A01 T01550071  RH  057%=      5-min Rain = 0
KTH1 110101Z 15013KT 16/07 A2959 RMK A01 T01550071  RH  057%=      5-min Rain = 0
KTH1 110102Z 15012G17KT 16/07 A2959 RMK A01 T01550071  RH  057%=      5-min Rain = 0
KTH1 110103Z 16012KT 16/07 A2959 RMK A01 T01560072  RH  057%=      5-min Rain = 0
KTH1 110104Z 16012KT 16/07 A296 RMK A01 T01550071  RH  057%=      5-min Rain = 0
KTH1 110105Z 16012G18KT 16/07 A296 RMK A01 T01560072  RH  057%=      5-min Rain = 0
KTH1 110106Z 16013KT 16/07 A296 RMK A01 T01550072  RH  057%=      5-min Rain = 0
KTH1 110107Z 16012KT 16/07 A296 RMK A01 T01560072  RH  057%=      5-min Rain = 0
KTH1 110108Z 16010KT 16/07 A296 RMK A01 T01560072  RH  057%=      5-min Rain = 0
KTH1 110109Z 16014KT 16/07 A296 RMK A01 T01560072  RH  057%=      5-min Rain = 0
KTH1 110110Z 16012KT 16/07 A296 RMK A01 T01550072  RH  058%=      5-min Rain = 0
KTH1 110111Z 16012KT 16/07 A2961 RMK A01 T01560072  RH  057%=      5-min Rain = 0
KTH1 110112Z 16012KT 16/07 A2961 RMK A01 T01550072  RH  057%=      5-min Rain = 0
KTH1 110113Z 16013KT 16/07 A2961 RMK A01 T01560072  RH  057%=      5-min Rain = 0
KTH1 110114Z 17013KT 16/07 A2961 RMK A01 T01560072  RH  057%=      5-min Rain = 0
KTH1 110115Z 16012KT 16/07 A2961 RMK A01 T01570072  RH  057%=      5-min Rain = 0
KTH1 110116Z 16014KT 16/07 A2961 RMK A01 T01570072  RH  057%=      5-min Rain = 0
KTH1 110117Z 16014G19KT 16/07 A2961 RMK A01 T01570072  RH  057%=      5-min Rain = 0
KTH1 110118Z 16012KT 16/07 A2961 RMK A01 T01570073  RH  057%=      5-min Rain = 0
KTH1 110119Z 16013KT 16/07 A2961 RMK A01 T01570072  RH  057%=      5-min Rain = 0
KTH1 110120Z 16014G19KT 16/07 A2961 RMK A01 T01570072  RH  057%=      5-min Rain = 0
KTH1 110121Z 16012KT 16/07 A2961 RMK A01 T01580073  RH  057%=      5-min Rain = 0
KTH1 110122Z 17012KT 16/07 A2962 RMK A01 T01580072  RH  057%=      5-min Rain = 0
KTH1 110123Z 16010KT 16/07 A2962 RMK A01 T01580072  RH  057%=      5-min Rain = 0
KTH1 110124Z 16014G19KT 16/07 A2962 RMK A01 T01580073  RH  057%=      5-min Rain = 0
KTH1 110125Z 17014G19KT 16/07 A2962 RMK A01 T01580072  RH  057%=      5-min Rain = 0
KTH1 110126Z 16014KT 16/07 A2962 RMK A01 T01580072  RH  057%=      5-min Rain = 0
KTH1 110127Z 17014KT 16/07 A2962 RMK A01 T01580072  RH  057%=      5-min Rain = 0
KTH1 110128Z 16013KT 16/07 A2962 RMK A01 T01590072  RH  057%=      5-min Rain = 0
KTH1 110129Z 17013KT 16/07 A2962 RMK A01 T01580072  RH  057%=      5-min Rain = 0
KTH1 110130Z 17011KT 16/07 A2962 RMK A01 T01580072  RH  057%=      5-min Rain = 0
KTH1 110131Z 16010G15KT 16/07 A2962 RMK A01 T01580072  RH  057%=      5-min Rain = 0
KTH1 110132Z 17013KT 16/07 A2962 RMK A01 T01580072  RH  057%=      5-min Rain = 0
KTH1 110133Z 17012G18KT 16/07 A2962 RMK A01 T01580073  RH  057%=      5-min Rain = 0
KTH1 110134Z 16012KT 16/07 A2962 RMK A01 T01580073  RH  057%=      5-min Rain = 0
KTH1 110135Z 16011G16KT 16/07 A2962 RMK A01 T01580073  RH  057%=      5-min Rain = 0
KTH1 110136Z 15013KT 16/07 A2962 RMK A01 T01570073  RH  057%=      5-min Rain = 0
KTH1 110137Z 15013KT 16/08 A2963 RMK A01 T01570075  RH  058%=      5-min Rain = 0
KTH1 110138Z 16013KT 16/08 A2963 RMK A01 T01560075  RH  059%=      5-min Rain = 0
KTH1 110139Z 18009KT 16/08 A2965 RMK A01 T01560075  RH  059%=      5-min Rain = 0
KTH1 110140Z 21010KT 16/08 A2967 RMK A01 T01550075  RH  059%=      5-min Rain = 0
KTH1 110141Z 23008KT 16/08 A2967 RMK A01 T01550075  RH  059%=      5-min Rain = 0
KTH1 110142Z 25016G21KT 15/07 A2968 RMK A01 T01540074  RH  059%=      5-min Rain = 0
KTH1 110143Z 24017KT 15/07 A2969 RMK A01 T01520073  RH  059%=      5-min Rain = 0
KTH1 110144Z 24016KT 15/08 A297 RMK A01 T01510076  RH  061%=      5-min Rain = 0
KTH1 110145Z 23015KT 15/08 A297 RMK A01 T01510077  RH  061%=      5-min Rain = 0
KTH1 110146Z 23017KT 15/08 A297 RMK A01 T01520076  RH  060%=      5-min Rain = 0
KTH1 110147Z 23016G23KT 16/08 A297 RMK A01 T01560075  RH  058%=      5-min Rain = 0
KTH1 110148Z 23016G21KT 16/07 A297 RMK A01 T01590074  RH  057%=      5-min Rain = 0
KTH1 110149Z 24019G24KT 16/07 A2969 RMK A01 T01610073  RH  056%=      5-min Rain = 0
KTH1 110150Z 24013KT 16/07 A297 RMK A01 T01630073  RH  055%=      5-min Rain = 0
KTH1 110151Z 25013KT 16/07 A297 RMK A01 T01610073  RH  056%=      5-min Rain = 0
KTH1 110152Z 24014G19KT 16/08 A2969 RMK A01 T01580076  RH  058%=      5-min Rain = 0
KTH1 110153Z 25016G21KT 16/08 A2969 RMK A01 T01580081  RH  060%=      5-min Rain = 0
KTH1 110154Z 25018G23KT 16/09 A2969 RMK A01 T01580085  RH  062%=      5-min Rain = 0
KTH1 110155Z 24015KT 16/09 A2969 RMK A01 T01570086  RH  062%=      5-min Rain = 0
KTH1 110156Z 25013KT 16/09 A2969 RMK A01 T01560086  RH  063%=      5-min Rain = 0
KTH1 110157Z 25016KT 15/09 A2969 RMK A01 T01540087  RH  064%=      5-min Rain = 0
KTH1 110158Z 25016KT 15/09 A2969 RMK A01 T01530089  RH  065%=      5-min Rain = 0
KTH1 110159Z 25013KT 15/09 A2969 RMK A01 T01520089  RH  066%=      5-min Rain = 0
KTH1 110200Z 24012KT 15/09 A2969 RMK A01 T01510088  RH  066%=      5-min Rain = 0
KTH1 110201Z 24011KT 15/09 A2969 RMK A01 T01500089  RH  067%=      5-min Rain = 0
KTH1 110202Z 24012KT 15/09 A2969 RMK A01 T01500090  RH  067%=      5-min Rain = 0
KTH1 110203Z 24010KT 15/09 A2969 RMK A01 T01520091  RH  067%=      5-min Rain = 0
KTH1 110204Z 24011KT 15/09 A2969 RMK A01 T01540091  RH  066%=      5-min Rain = 0
KTH1 110205Z 23009KT 16/09 A2969 RMK A01 T01550091  RH  066%=      5-min Rain = 0
KTH1 110206Z 23009KT 16/09 A2969 RMK A01 T01550091  RH  066%=      5-min Rain = 0
KTH1 110207Z 23011KT 16/09 A2969 RMK A01 T01550092  RH  066%=      5-min Rain = 0
KTH1 110208Z 23009KT 16/09 A2969 RMK A01 T01560092  RH  066%=      5-min Rain = 0
KTH1 110209Z 23009KT 16/09 A2969 RMK A01 T01560092  RH  066%=      5-min Rain = 0
KTH1 110210Z 22012KT 16/09 A2969 RMK A01 T01560092  RH  066%=      5-min Rain = 0
KTH1 110211Z 23010KT 16/09 A2969 RMK A01 T01570093  RH  066%=      5-min Rain = 0
KTH1 110212Z 23010KT 16/09 A2969 RMK A01 T01570092  RH  065%=      5-min Rain = 0
KTH1 110213Z 23008KT 16/09 A2969 RMK A01 T01570092  RH  065%=      5-min Rain = 0
KTH1 110214Z 23008KT 16/09 A2969 RMK A01 T01560092  RH  066%=      5-min Rain = 0
KTH1 110215Z 23009KT 16/09 A2969 RMK A01 T01550092  RH  066%=      5-min Rain = 0
KTH1 110216Z 23007KT 16/09 A2969 RMK A01 T01550092  RH  066%=      5-min Rain = 0
KTH1 110217Z 24011KT 16/09 A2969 RMK A01 T01550092  RH  066%=      5-min Rain = 0
KTH1 110218Z 24011KT 15/09 A2969 RMK A01 T01540092  RH  066%=      5-min Rain = 0
KTH1 110219Z 24010KT 15/09 A2969 RMK A01 T01540092  RH  066%=      5-min Rain = 0
KTH1 110220Z 24011G16KT 15/09 A2969 RMK A01 T01530091  RH  066%=      5-min Rain = 0
KTH1 110221Z 23010KT 15/09 A2969 RMK A01 T01530091  RH  067%=      5-min Rain = 0
KTH1 110222Z 23010KT 15/09 A2969 RMK A01 T01530092  RH  067%=      5-min Rain = 0
KTH1 110223Z 23008KT 15/09 A2969 RMK A01 T01530091  RH  067%=      5-min Rain = 0
KTH1 110224Z 23008KT 15/09 A2968 RMK A01 T01530091  RH  066%=      5-min Rain = 0
KTH1 110225Z 23009KT 15/09 A2968 RMK A01 T01540092  RH  066%=      5-min Rain = 0
KTH1 110226Z 23009KT 15/09 A2968 RMK A01 T01540092  RH  066%=      5-min Rain = 0
KTH1 110227Z 24008KT 16/09 A2968 RMK A01 T01550092  RH  066%=      5-min Rain = 0
KTH1 110228Z 23008KT 16/09 A2968 RMK A01 T01550092  RH  066%=      5-min Rain = 0
KTH1 110229Z 23008KT 16/09 A2968 RMK A01 T01550092  RH  066%=      5-min Rain = 0
KTH1 110230Z 24009KT 16/09 A2968 RMK A01 T01550091  RH  066%=      5-min Rain = 0
KTH1 110231Z 23008KT 16/09 A2968 RMK A01 T01550091  RH  066%=      5-min Rain = 0
KTH1 110232Z 23007KT 16/09 A2968 RMK A01 T01550091  RH  066%=      5-min Rain = 0
KTH1 110233Z 23007KT 15/09 A2968 RMK A01 T01540091  RH  066%=      5-min Rain = 0
KTH1 110234Z 23007KT 15/09 A2968 RMK A01 T01540091  RH  066%=      5-min Rain = 0
KTH1 110235Z 24007KT 15/09 A2967 RMK A01 T01540091  RH  066%=      5-min Rain = 0
KTH1 110236Z 24008KT 15/09 A2967 RMK A01 T01540090  RH  066%=      5-min Rain = 0
KTH1 110237Z 24007KT 15/09 A2968 RMK A01 T01530089  RH  066%=      5-min Rain = 0
KTH1 110238Z 23010KT 15/09 A2968 RMK A01 T01520089  RH  066%=      5-min Rain = 0
KTH1 110239Z 24009KT 15/09 A2968 RMK A01 T01520088  RH  065%=      5-min Rain = 0
KTH1 110240Z 24008KT 15/09 A2968 RMK A01 T01530087  RH  065%=      5-min Rain = 0
KTH1 110241Z 23009KT 15/09 A2968 RMK A01 T01530087  RH  065%=      5-min Rain = 0
KTH1 110242Z 24010KT 15/09 A2968 RMK A01 T01530087  RH  064%=      5-min Rain = 0
KTH1 110243Z 23010KT 15/09 A2968 RMK A01 T01530087  RH  065%=      5-min Rain = 0
KTH1 110244Z 22010KT 15/09 A2968 RMK A01 T01540087  RH  064%=      5-min Rain = 0
KTH1 110245Z 21008KT 16/09 A2967 RMK A01 T01550087  RH  064%=      5-min Rain = 0
KTH1 110246Z 22006KT 16/09 A2967 RMK A01 T01560087  RH  064%=      5-min Rain = 0
KTH1 110247Z 23006KT 16/09 A2967 RMK A01 T01560087  RH  064%=      5-min Rain = 0
KTH1 110248Z 23007KT 16/09 A2967 RMK A01 T01550087  RH  064%=      5-min Rain = 0
KTH1 110249Z 24007KT 16/09 A2967 RMK A01 T01550087  RH  064%=      5-min Rain = 0
KTH1 110250Z 24008KT 16/09 A2967 RMK A01 T01550087  RH  064%=      5-min Rain = 0
KTH1 110251Z 24007KT 16/09 A2967 RMK A01 T01550087  RH  064%=      5-min Rain = 0
KTH1 110252Z 25009KT 15/09 A2967 RMK A01 T01530086  RH  064%=      5-min Rain = 0
KTH1 110253Z 25007KT 15/09 A2967 RMK A01 T01510085  RH  065%=      5-min Rain = 0
KTH1 110254Z 24007KT 15/08 A2966 RMK A01 T01480084  RH  065%=      5-min Rain = 0
KTH1 110255Z 24006KT 15/08 A2966 RMK A01 T01460084  RH  066%=      5-min Rain = 0
KTH1 110256Z 24006KT 15/09 A2966 RMK A01 T01460085  RH  067%=      5-min Rain = 0
KTH1 110257Z 22005KT 15/09 A2965 RMK A01 T01460085  RH  067%=      5-min Rain = 0
KTH1 110258Z 18003KT 15/09 A2964 RMK A01 T01470086  RH  067%=      5-min Rain = 0
KTH1 110259Z 14003KT 15/09 A2962 RMK A01 T01490086  RH  066%=      5-min Rain = 0
KTH1 110300Z 11005KT 15/09 A2961 RMK A01 T01480086  RH  066%=      5-min Rain = 0
KTH1 110301Z 10005KT 15/09 A296 RMK A01 T01490086  RH  066%=      5-min Rain = 0
KTH1 110302Z 10003KT 15/09 A296 RMK A01 T01480086  RH  066%=      5-min Rain = 0
KTH1 110303Z 11002KT 15/09 A2961 RMK A01 T01480086  RH  066%=      5-min Rain = 0
KTH1 110304Z 13002KT 15/09 A2961 RMK A01 T01480086  RH  066%=      5-min Rain = 0
KTH1 110305Z 13002KT 15/09 A2962 RMK A01 T01470085  RH  066%=      5-min Rain = 0
KTH1 110306Z 14004KT 15/09 A2962 RMK A01 T01470086  RH  067%=      5-min Rain = 0
KTH1 110307Z 15006KT 15/09 A2962 RMK A01 T01460085  RH  067%=      5-min Rain = 0
KTH1 110308Z 16006KT 15/09 A2963 RMK A01 T01450085  RH  067%=      5-min Rain = 0
KTH1 110309Z 17006KT 15/09 A2963 RMK A01 T01450085  RH  067%=      5-min Rain = 0
KTH1 110310Z 17006KT 14/09 A2963 RMK A01 T01440085  RH  067%=      5-min Rain = 0
KTH1 110311Z 16005KT 14/08 A2963 RMK A01 T01440084  RH  067%=      5-min Rain = 0
KTH1 110312Z 16004KT 14/08 A2963 RMK A01 T01430084  RH  068%=      5-min Rain = 0
KTH1 110313Z 16005KT 14/08 A2963 RMK A01 T01420083  RH  068%=      5-min Rain = 0
KTH1 110314Z 15006KT 14/08 A2963 RMK A01 T01410083  RH  068%=      5-min Rain = 0
KTH1 110315Z 15007KT 14/08 A2963 RMK A01 T01400083  RH  068%=      5-min Rain = 0
KTH1 110316Z 14007KT 14/08 A2963 RMK A01 T01390083  RH  069%=      5-min Rain = 0
KTH1 110317Z 14007KT 14/08 A2963 RMK A01 T01390083  RH  069%=      5-min Rain = 0
KTH1 110318Z 14007KT 14/08 A2963 RMK A01 T01380083  RH  069%=      5-min Rain = 0
KTH1 110319Z 14008KT 14/08 A2963 RMK A01 T01380083  RH  069%=      5-min Rain = 0
KTH1 110320Z 15008KT 14/08 A2963 RMK A01 T01380083  RH  070%=      5-min Rain = 0
KTH1 110321Z 14006KT 14/08 A2963 RMK A01 T01370083  RH  070%=      5-min Rain = 0
KTH1 110322Z 14007KT 14/08 A2962 RMK A01 T01380083  RH  070%=      5-min Rain = 0
KTH1 110323Z 14008KT 14/08 A2962 RMK A01 T01370084  RH  070%=      5-min Rain = 0
KTH1 110324Z 14010KT 14/08 A2962 RMK A01 T01370084  RH  070%=      5-min Rain = 0
KTH1 110325Z 13010KT 14/08 A2962 RMK A01 T01360084  RH  070%=      5-min Rain = 0
KTH1 110326Z 14009KT 14/08 A2962 RMK A01 T01350083  RH  071%=      5-min Rain = 0
KTH1 110327Z 13010KT 13/08 A2962 RMK A01 T01340083  RH  071%=      5-min Rain = 0
KTH1 110328Z 14010KT 13/08 A2961 RMK A01 T01330084  RH  072%=      5-min Rain = 0
KTH1 110329Z 13010KT 13/08 A2962 RMK A01 T01330084  RH  072%=      5-min Rain = 0
KTH1 110330Z 14010KT 13/08 A2962 RMK A01 T01320084  RH  073%=      5-min Rain = 0
KTH1 110331Z 14010KT 13/08 A2962 RMK A01 T01320084  RH  073%=      5-min Rain = 0
KTH1 110332Z 15009KT 13/08 A2962 RMK A01 T01320084  RH  073%=      5-min Rain = 0
KTH1 110333Z 16008KT 13/08 A2962 RMK A01 T01320084  RH  072%=      5-min Rain = 0
KTH1 110334Z 15007KT 13/08 A2962 RMK A01 T01320084  RH  072%=      5-min Rain = 0
KTH1 110335Z 15007KT 13/08 A2962 RMK A01 T01320084  RH  072%=      5-min Rain = 0
KTH1 110336Z 16007KT 13/08 A2963 RMK A01 T01320084  RH  073%=      5-min Rain = 0
KTH1 110337Z 19006KT 13/08 A2963 RMK A01 T01310083  RH  073%=      5-min Rain = 0
KTH1 110338Z 19006KT 13/08 A2964 RMK A01 T01300083  RH  073%=      5-min Rain = 0
KTH1 110339Z 19005KT 13/08 A2963 RMK A01 T01290083  RH  073%=      5-min Rain = 0
KTH1 110340Z 19005KT 13/08 A2963 RMK A01 T01290083  RH  074%=      5-min Rain = 0
KTH1 110341Z 18005KT 13/08 A2963 RMK A01 T01280083  RH  074%=      5-min Rain = 0
KTH1 110342Z 17006KT 13/08 A2964 RMK A01 T01290083  RH  074%=      5-min Rain = 0
KTH1 110343Z 17006KT 13/08 A2964 RMK A01 T01300083  RH  073%=      5-min Rain = 0
KTH1 110344Z 16005KT 13/08 A2963 RMK A01 T01300083  RH  073%=      5-min Rain = 0
KTH1 110345Z 18007KT 13/08 A2964 RMK A01 T01300083  RH  073%=      5-min Rain = 0
KTH1 110346Z 18007KT 13/08 A2964 RMK A01 T01300083  RH  073%=      5-min Rain = 0
KTH1 110347Z 18008KT 13/08 A2964 RMK A01 T01310083  RH  073%=      5-min Rain = 0
KTH1 110348Z 19008KT 13/08 A2964 RMK A01 T01310083  RH  072%=      5-min Rain = 0
KTH1 110349Z 19008KT 13/08 A2965 RMK A01 T01330083  RH  072%=      5-min Rain = 0
KTH1 110350Z 20008KT 13/08 A2965 RMK A01 T01340083  RH  071%=      5-min Rain = 0
KTH1 110351Z 19010KT 14/08 A2965 RMK A01 T01350083  RH  071%=      5-min Rain = 0
KTH1 110352Z 19009KT 14/08 A2965 RMK A01 T01350083  RH  071%=      5-min Rain = 0
KTH1 110353Z 19010KT 14/08 A2965 RMK A01 T01370084  RH  070%=      5-min Rain = 0
KTH1 110354Z 19010KT 14/08 A2965 RMK A01 T01370083  RH  070%=      5-min Rain = 0
KTH1 110355Z 18010KT 14/08 A2965 RMK A01 T01380084  RH  070%=      5-min Rain = 0
KTH1 110356Z 18011KT 14/08 A2965 RMK A01 T01390083  RH  069%=      5-min Rain = 0
KTH1 110357Z 19010G15KT 14/08 A2965 RMK A01 T01400084  RH  069%=      5-min Rain = 0
KTH1 110358Z 18010KT 14/08 A2965 RMK A01 T01400083  RH  068%=      5-min Rain = 0
KTH1 110359Z 19012KT 14/08 A2965 RMK A01 T01410083  RH  068%=      5-min Rain = 0
KTH1 110400Z 18011KT 14/08 A2965 RMK A01 T01420083  RH  068%=      5-min Rain = 0
KTH1 110401Z 19012KT 14/08 A2965 RMK A01 T01430083  RH  067%=      5-min Rain = 0
KTH1 110402Z 19011KT 14/08 A2965 RMK A01 T01430083  RH  067%=      5-min Rain = 0
KTH1 110403Z 19009KT 14/08 A2965 RMK A01 T01430083  RH  067%=      5-min Rain = 0
KTH1 110404Z 19010KT 14/08 A2965 RMK A01 T01430083  RH  067%=      5-min Rain = 0
KTH1 110405Z 19011KT 14/08 A2965 RMK A01 T01430082  RH  067%=      5-min Rain = 0
KTH1 110406Z 19009KT 14/08 A2965 RMK A01 T01430082  RH  067%=      5-min Rain = 0
KTH1 110407Z 19010KT 14/08 A2965 RMK A01 T01430082  RH  066%=      5-min Rain = 0
KTH1 110408Z 19010KT 14/08 A2965 RMK A01 T01430082  RH  066%=      5-min Rain = 0
KTH1 110409Z 19009KT 14/08 A2965 RMK A01 T01430082  RH  066%=      5-min Rain = 0
KTH1 110410Z 19008KT 14/08 A2965 RMK A01 T01430081  RH  066%=      5-min Rain = 0
KTH1 110411Z 20008KT 14/08 A2965 RMK A01 T01430081  RH  066%=      5-min Rain = 0
KTH1 110412Z 20008KT 14/08 A2965 RMK A01 T01420081  RH  066%=      5-min Rain = 0
KTH1 110413Z 19009KT 14/08 A2965 RMK A01 T01420080  RH  066%=      5-min Rain = 0
KTH1 110414Z 19008KT 14/08 A2965 RMK A01 T01410079  RH  066%=      5-min Rain = 0
KTH1 110415Z 19010KT 14/08 A2965 RMK A01 T01410079  RH  066%=      5-min Rain = 0
KTH1 110416Z 19011KT 14/08 A2965 RMK A01 T01420078  RH  066%=      5-min Rain = 0
KTH1 110417Z 20011KT 14/08 A2965 RMK A01 T01430078  RH  065%=      5-min Rain = 0
KTH1 110418Z 19011KT 14/08 A2965 RMK A01 T01430078  RH  065%=      5-min Rain = 0
KTH1 110419Z 19009KT 14/08 A2965 RMK A01 T01430078  RH  065%=      5-min Rain = 0
KTH1 110420Z 20011KT 14/08 A2965 RMK A01 T01430077  RH  065%=      5-min Rain = 0
KTH1 110421Z 19009KT 14/08 A2965 RMK A01 T01420077  RH  065%=      5-min Rain = 0
KTH1 110422Z 19011KT 14/08 A2965 RMK A01 T01420077  RH  065%=      5-min Rain = 0
KTH1 110423Z 20010KT 14/08 A2965 RMK A01 T01420077  RH  065%=      5-min Rain = 0
KTH1 110424Z 20010KT 14/08 A2965 RMK A01 T01420077  RH  065%=      5-min Rain = 0
KTH1 110425Z 19011KT 14/08 A2965 RMK A01 T01420077  RH  065%=      5-min Rain = 0
KTH1 110426Z 19010KT 14/08 A2965 RMK A01 T01420077  RH  065%=      5-min Rain = 0
KTH1 110427Z 19010KT 14/08 A2965 RMK A01 T01420076  RH  065%=      5-min Rain = 0
KTH1 110428Z 20009KT 14/08 A2965 RMK A01 T01410076  RH  065%=      5-min Rain = 0
KTH1 110429Z 19009KT 14/08 A2965 RMK A01 T01410076  RH  065%=      5-min Rain = 0
KTH1 110430Z 19011KT 14/08 A2965 RMK A01 T01410075  RH  064%=      5-min Rain = 0
KTH1 110431Z 20012KT 14/07 A2965 RMK A01 T01410074  RH  064%=      5-min Rain = 0
KTH1 110432Z 20009KT 14/07 A2965 RMK A01 T01420074  RH  064%=      5-min Rain = 0
KTH1 110433Z 20011KT 14/07 A2965 RMK A01 T01420074  RH  064%=      5-min Rain = 0
KTH1 110434Z 20010KT 14/07 A2965 RMK A01 T01410074  RH  064%=      5-min Rain = 0
KTH1 110435Z 20009KT 14/07 A2965 RMK A01 T01410074  RH  064%=      5-min Rain = 0
KTH1 110436Z 20009KT 14/07 A2965 RMK A01 T01400074  RH  064%=      5-min Rain = 0
KTH1 110437Z 19009KT 14/07 A2965 RMK A01 T01390074  RH  065%=      5-min Rain = 0
KTH1 110438Z 19011KT 14/07 A2965 RMK A01 T01400073  RH  064%=      5-min Rain = 0
KTH1 110439Z 19011KT 14/07 A2965 RMK A01 T01400072  RH  063%=      5-min Rain = 0
KTH1 110440Z 19009KT 14/07 A2965 RMK A01 T01410072  RH  063%=      5-min Rain = 0
KTH1 110441Z 19010KT 14/07 A2965 RMK A01 T01410072  RH  063%=      5-min Rain = 0
KTH1 110442Z 19010KT 14/07 A2965 RMK A01 T01410072  RH  063%=      5-min Rain = 0
KTH1 110443Z 19009KT 14/07 A2964 RMK A01 T01410072  RH  063%=      5-min Rain = 0
KTH1 110444Z 20010KT 14/07 A2964 RMK A01 T01410072  RH  063%=      5-min Rain = 0
KTH1 110445Z 19011KT 14/07 A2964 RMK A01 T01400071  RH  063%=      5-min Rain = 0
KTH1 110446Z 19010KT 14/07 A2964 RMK A01 T01400071  RH  063%=      5-min Rain = 0
KTH1 110447Z 19012KT 14/07 A2964 RMK A01 T01390071  RH  063%=      5-min Rain = 0
KTH1 110448Z 19011KT 14/07 A2965 RMK A01 T01390071  RH  063%=      5-min Rain = 0
KTH1 110449Z 19011KT 14/07 A2965 RMK A01 T01390070  RH  063%=      5-min Rain = 0
KTH1 110450Z 19012KT 14/07 A2964 RMK A01 T01400070  RH  063%=      5-min Rain = 0
KTH1 110451Z 19011KT 14/07 A2965 RMK A01 T01400070  RH  063%=      5-min Rain = 0
KTH1 110452Z 19011KT 14/07 A2965 RMK A01 T01390070  RH  063%=      5-min Rain = 0
KTH1 110453Z 20011KT 14/07 A2965 RMK A01 T01390069  RH  063%=      5-min Rain = 0
KTH1 110454Z 19011KT 14/07 A2964 RMK A01 T01400069  RH  063%=      5-min Rain = 0
KTH1 110455Z 20010KT 14/07 A2964 RMK A01 T01400070  RH  063%=      5-min Rain = 0
KTH1 110456Z 20009KT 14/07 A2964 RMK A01 T01400069  RH  063%=      5-min Rain = 0
KTH1 110457Z 19009KT 14/07 A2964 RMK A01 T01390069  RH  063%=      5-min Rain = 0
KTH1 110458Z 20010KT 14/07 A2964 RMK A01 T01380068  RH  063%=      5-min Rain = 0
KTH1 110459Z 20009KT 14/07 A2964 RMK A01 T01370069  RH  063%=      5-min Rain = 0
KTH1 110500Z 20009KT 14/07 A2964 RMK A01 T01370069  RH  063%=      5-min Rain = 0
KTH1 110501Z 20010KT 14/07 A2964 RMK A01 T01360068  RH  064%=      5-min Rain = 0
KTH1 110502Z 20011KT 14/07 A2964 RMK A01 T01360068  RH  064%=      5-min Rain = 0
KTH1 110503Z 20010KT 14/07 A2964 RMK A01 T01360068  RH  063%=      5-min Rain = 0
KTH1 110504Z 20011KT 14/07 A2964 RMK A01 T01360067  RH  063%=      5-min Rain = 0
KTH1 110505Z 20011KT 14/07 A2964 RMK A01 T01360067  RH  063%=      5-min Rain = 0
KTH1 110506Z 20011KT 14/07 A2964 RMK A01 T01360067  RH  063%=      5-min Rain = 0
KTH1 110507Z 20011KT 14/07 A2964 RMK A01 T01350066  RH  063%=      5-min Rain = 0
KTH1 110508Z 20010KT 14/07 A2964 RMK A01 T01350066  RH  063%=      5-min Rain = 0
KTH1 110509Z 20010KT 14/07 A2964 RMK A01 T01350067  RH  063%=      5-min Rain = 0
KTH1 110510Z 20009KT 13/07 A2964 RMK A01 T01340066  RH  063%=      5-min Rain = 0
KTH1 110511Z 20009KT 13/07 A2965 RMK A01 T01330066  RH  064%=      5-min Rain = 0
KTH1 110512Z 20010KT 13/07 A2964 RMK A01 T01320066  RH  064%=      5-min Rain = 0
KTH1 110513Z 20009KT 13/07 A2965 RMK A01 T01320066  RH  065%=      5-min Rain = 0
KTH1 110514Z 20008KT 13/07 A2965 RMK A01 T01310066  RH  065%=      5-min Rain = 0
KTH1 110515Z 20010KT 13/07 A2965 RMK A01 T01310066  RH  065%=      5-min Rain = 0
KTH1 110516Z 20010KT 13/07 A2965 RMK A01 T01310065  RH  064%=      5-min Rain = 0
KTH1 110517Z 20009KT 13/06 A2964 RMK A01 T01310064  RH  064%=      5-min Rain = 0
KTH1 110518Z 20009KT 13/06 A2964 RMK A01 T01310063  RH  064%=      5-min Rain = 0
KTH1 110519Z 20010KT 13/06 A2964 RMK A01 T01310063  RH  063%=      5-min Rain = 0
KTH1 110520Z 20009KT 13/06 A2964 RMK A01 T01300062  RH  063%=      5-min Rain = 0
KTH1 110521Z 20010KT 13/06 A2964 RMK A01 T01300061  RH  063%=      5-min Rain = 0
KTH1 110522Z 20008KT 13/06 A2964 RMK A01 T01300061  RH  063%=      5-min Rain = 0
KTH1 110523Z 20009KT 13/06 A2964 RMK A01 T01300061  RH  063%=      5-min Rain = 0
KTH1 110524Z 20009KT 13/06 A2964 RMK A01 T01300061  RH  063%=      5-min Rain = 0
KTH1 110525Z 20009KT 13/06 A2964 RMK A01 T01290060  RH  063%=      5-min Rain = 0
KTH1 110526Z 20010KT 13/06 A2964 RMK A01 T01290060  RH  063%=      5-min Rain = 0
KTH1 110527Z 20009KT 13/06 A2964 RMK A01 T01290060  RH  063%=      5-min Rain = 0
KTH1 110528Z 20010KT 13/06 A2964 RMK A01 T01290059  RH  062%=      5-min Rain = 0
KTH1 110529Z 20008KT 13/06 A2964 RMK A01 T01280058  RH  062%=      5-min Rain = 0
KTH1 110530Z 20009KT 13/06 A2964 RMK A01 T01280058  RH  062%=      5-min Rain = 0
KTH1 110531Z 20008KT 13/06 A2964 RMK A01 T01270057  RH  062%=      5-min Rain = 0
KTH1 110532Z 20009KT 13/06 A2964 RMK A01 T01260056  RH  062%=      5-min Rain = 0
KTH1 110533Z 21008KT 13/06 A2964 RMK A01 T01260055  RH  062%=      5-min Rain = 0
KTH1 110534Z 21009KT 13/06 A2964 RMK A01 T01260055  RH  062%=      5-min Rain = 0
KTH1 110535Z 21009KT 13/05 A2964 RMK A01 T01250054  RH  062%=      5-min Rain = 0
KTH1 110536Z 21010KT 12/05 A2964 RMK A01 T01240054  RH  062%=      5-min Rain = 0
KTH1 110537Z 21008KT 13/05 A2964 RMK A01 T01250054  RH  062%=      5-min Rain = 0
KTH1 110538Z 21009KT 13/05 A2964 RMK A01 T01250054  RH  062%=      5-min Rain = 0
KTH1 110539Z 21008KT 12/05 A2964 RMK A01 T01240053  RH  062%=      5-min Rain = 0
KTH1 110540Z 21008KT 12/05 A2964 RMK A01 T01230052  RH  062%=      5-min Rain = 0
KTH1 110541Z 21009KT 12/05 A2964 RMK A01 T01230052  RH  062%=      5-min Rain = 0
KTH1 110542Z 20008KT 12/05 A2964 RMK A01 T01230052  RH  062%=      5-min Rain = 0
KTH1 110543Z 21008KT 12/05 A2964 RMK A01 T01230051  RH  062%=      5-min Rain = 0
KTH1 110544Z 20008KT 12/05 A2964 RMK A01 T01220051  RH  062%=      5-min Rain = 0
KTH1 110545Z 21008KT 12/05 A2964 RMK A01 T01210050  RH  062%=      5-min Rain = 0
KTH1 110546Z 21008KT 12/05 A2964 RMK A01 T01210050  RH  062%=      5-min Rain = 0
KTH1 110547Z 21009KT 12/05 A2964 RMK A01 T01210050  RH  062%=      5-min Rain = 0
KTH1 110548Z 21009KT 12/05 A2964 RMK A01 T01210050  RH  062%=      5-min Rain = 0
KTH1 110549Z 21008KT 12/05 A2964 RMK A01 T01210050  RH  062%=      5-min Rain = 0
KTH1 110550Z 20008KT 12/05 A2964 RMK A01 T01200050  RH  062%=      5-min Rain = 0
KTH1 110551Z 20008KT 12/05 A2964 RMK A01 T01200050  RH  062%=      5-min Rain = 0
KTH1 110552Z 21008KT 12/05 A2964 RMK A01 T01190049  RH  062%=      5-min Rain = 0
KTH1 110553Z 20007KT 12/05 A2964 RMK A01 T01190049  RH  062%=      5-min Rain = 0
KTH1 110554Z 21008KT 12/05 A2964 RMK A01 T01180049  RH  062%=      5-min Rain = 0
KTH1 110555Z 20008KT 12/05 A2964 RMK A01 T01170048  RH  063%=      5-min Rain = 0
KTH1 110556Z 20008KT 12/05 A2964 RMK A01 T01170048  RH  062%=      5-min Rain = 0
KTH1 110557Z 20008KT 12/05 A2964 RMK A01 T01180047  RH  062%=      5-min Rain = 0
KTH1 110558Z 20008KT 12/05 A2964 RMK A01 T01170047  RH  062%=      5-min Rain = 0
KTH1 110559Z 21008KT 12/05 A2964 RMK A01 T01180047  RH  062%=      5-min Rain = 0

Page generated in 0.0753 seconds.